<?xml version="1.0" encoding="UTF-8" standalone="no" ?><gpx xmlns="http://www.topografix.com/GPX/1/1" xmlns:gpxx="http://www.garmin.com/xmlschemas/GpxExtensions/v3" xmlns:wptx1="http://www.garmin.com/xmlschemas/WaypointExtension/v1" xmlns:gpxtpx="http://www.garmin.com/xmlschemas/TrackPointExtension/v1" creator="GuideVTT.com" version="1.1" xmlns:xsi="http://www.w3.org/2001/XMLSchema-instance" xsi:schemaLocation="http://www.topografix.com/GPX/1/1 http://www.topografix.com/GPX/1/1/gpx.xsd http://www.garmin.com/xmlschemas/GpxExtensions/v3 http://www8.garmin.com/xmlschemas/GpxExtensionsv3.xsd http://www.garmin.com/xmlschemas/WaypointExtension/v1 http://www8.garmin.com/xmlschemas/WaypointExtensionv1.xsd http://www.garmin.com/xmlschemas/TrackPointExtension/v1 http://www.garmin.com/xmlschemas/TrackPointExtensionv1.xsd">
<metadata><link href="http://www.garmin.com"><text>Garmin International</text></link><time>2013-06-22T15:13:50Z</time></metadata>
<trk><name>rp2018_16.gpx</name><extensions><gpxx:TrackExtension><gpxx:DisplayColor>Cyan</gpxx:DisplayColor></gpxx:TrackExtension></extensions><trkseg>
<trkpt lat="46.48845" lon="6.72588"><ele>377.8</ele><time>2018-07-11T15:56:50Z</time></trkpt>
<trkpt lat="46.48846" lon="6.7259"><ele>378</ele><time>2018-07-11T15:56:51Z</time></trkpt>
<trkpt lat="46.48847" lon="6.72592"><ele>378.4</ele><time>2018-07-11T15:56:53Z</time></trkpt>
<trkpt lat="46.48847" lon="6.72594"><ele>378.6</ele><time>2018-07-11T15:56:54Z</time></trkpt>
<trkpt lat="46.48853" lon="6.72622"><ele>380.6</ele><time>2018-07-11T15:57:03Z</time></trkpt>
<trkpt lat="46.48858" lon="6.72649"><ele>381</ele><time>2018-07-11T15:57:09Z</time></trkpt>
<trkpt lat="46.48868" lon="6.72675"><ele>381.6</ele><time>2018-07-11T15:57:15Z</time></trkpt>
<trkpt lat="46.48887" lon="6.72685"><ele>382.2</ele><time>2018-07-11T15:57:21Z</time></trkpt>
<trkpt lat="46.48894" lon="6.72686"><ele>382.4</ele><time>2018-07-11T15:57:23Z</time></trkpt>
<trkpt lat="46.48914" lon="6.72689"><ele>386</ele><time>2018-07-11T15:57:28Z</time></trkpt>
<trkpt lat="46.48934" lon="6.72695"><ele>388.4</ele><time>2018-07-11T15:57:34Z</time></trkpt>
<trkpt lat="46.48943" lon="6.7272"><ele>393.6</ele><time>2018-07-11T15:57:42Z</time></trkpt>
<trkpt lat="46.48944" lon="6.72735"><ele>393.6</ele><time>2018-07-11T15:57:47Z</time></trkpt>
<trkpt lat="46.48945" lon="6.72739"><ele>393.6</ele><time>2018-07-11T15:57:51Z</time></trkpt>
<trkpt lat="46.48945" lon="6.7274"><ele>394.8</ele><time>2018-07-11T15:58:08Z</time></trkpt>
<trkpt lat="46.48946" lon="6.7274"><ele>395.4</ele><time>2018-07-11T15:58:22Z</time></trkpt>
<trkpt lat="46.48947" lon="6.72739"><ele>395.2</ele><time>2018-07-11T15:58:40Z</time></trkpt>
<trkpt lat="46.48948" lon="6.72738"><ele>395.6</ele><time>2018-07-11T15:58:49Z</time></trkpt>
<trkpt lat="46.48954" lon="6.72766"><ele>397.6</ele><time>2018-07-11T15:59:09Z</time></trkpt>
<trkpt lat="46.48957" lon="6.72792"><ele>399</ele><time>2018-07-11T15:59:16Z</time></trkpt>
<trkpt lat="46.48959" lon="6.72821"><ele>400.8</ele><time>2018-07-11T15:59:24Z</time></trkpt>
<trkpt lat="46.48962" lon="6.72849"><ele>401.8</ele><time>2018-07-11T15:59:32Z</time></trkpt>
<trkpt lat="46.48963" lon="6.72856"><ele>402.2</ele><time>2018-07-11T15:59:34Z</time></trkpt>
<trkpt lat="46.48969" lon="6.72881"><ele>403.4</ele><time>2018-07-11T15:59:42Z</time></trkpt>
<trkpt lat="46.48974" lon="6.72895"><ele>404.4</ele><time>2018-07-11T15:59:47Z</time></trkpt>
<trkpt lat="46.48977" lon="6.72901"><ele>404.8</ele><time>2018-07-11T15:59:49Z</time></trkpt>
<trkpt lat="46.48982" lon="6.7291"><ele>405.2</ele><time>2018-07-11T15:59:52Z</time></trkpt>
<trkpt lat="46.48995" lon="6.7293"><ele>406.6</ele><time>2018-07-11T16:00:00Z</time></trkpt>
<trkpt lat="46.49011" lon="6.72946"><ele>407.8</ele><time>2018-07-11T16:00:09Z</time></trkpt>
<trkpt lat="46.49028" lon="6.7296"><ele>409</ele><time>2018-07-11T16:00:17Z</time></trkpt>
<trkpt lat="46.49044" lon="6.72973"><ele>410.2</ele><time>2018-07-11T16:00:25Z</time></trkpt>
<trkpt lat="46.49062" lon="6.72987"><ele>411.8</ele><time>2018-07-11T16:00:33Z</time></trkpt>
<trkpt lat="46.49078" lon="6.72999"><ele>413.2</ele><time>2018-07-11T16:00:40Z</time></trkpt>
<trkpt lat="46.49091" lon="6.7301"><ele>414.2</ele><time>2018-07-11T16:00:46Z</time></trkpt>
<trkpt lat="46.49108" lon="6.73026"><ele>415.6</ele><time>2018-07-11T16:00:53Z</time></trkpt>
<trkpt lat="46.49113" lon="6.73032"><ele>415.8</ele><time>2018-07-11T16:00:55Z</time></trkpt>
<trkpt lat="46.49126" lon="6.73052"><ele>417.2</ele><time>2018-07-11T16:01:02Z</time></trkpt>
<trkpt lat="46.49131" lon="6.73065"><ele>417.8</ele><time>2018-07-11T16:01:06Z</time></trkpt>
<trkpt lat="46.49138" lon="6.73089"><ele>419.2</ele><time>2018-07-11T16:01:13Z</time></trkpt>
<trkpt lat="46.49143" lon="6.73111"><ele>420.2</ele><time>2018-07-11T16:01:19Z</time></trkpt>
<trkpt lat="46.49147" lon="6.73137"><ele>421.4</ele><time>2018-07-11T16:01:26Z</time></trkpt>
<trkpt lat="46.4915" lon="6.73148"><ele>421.8</ele><time>2018-07-11T16:01:29Z</time></trkpt>
<trkpt lat="46.49159" lon="6.73173"><ele>423</ele><time>2018-07-11T16:01:37Z</time></trkpt>
<trkpt lat="46.49171" lon="6.73195"><ele>424</ele><time>2018-07-11T16:01:45Z</time></trkpt>
<trkpt lat="46.49185" lon="6.73212"><ele>425</ele><time>2018-07-11T16:01:52Z</time></trkpt>
<trkpt lat="46.492" lon="6.73228"><ele>426</ele><time>2018-07-11T16:01:59Z</time></trkpt>
<trkpt lat="46.49214" lon="6.73248"><ele>427.4</ele><time>2018-07-11T16:02:07Z</time></trkpt>
<trkpt lat="46.49226" lon="6.73268"><ele>428.8</ele><time>2018-07-11T16:02:14Z</time></trkpt>
<trkpt lat="46.49232" lon="6.7328"><ele>429.4</ele><time>2018-07-11T16:02:18Z</time></trkpt>
<trkpt lat="46.49239" lon="6.73295"><ele>430.4</ele><time>2018-07-11T16:02:23Z</time></trkpt>
<trkpt lat="46.49246" lon="6.73308"><ele>431</ele><time>2018-07-11T16:02:27Z</time></trkpt>
<trkpt lat="46.49247" lon="6.73311"><ele>431.2</ele><time>2018-07-11T16:02:28Z</time></trkpt>
<trkpt lat="46.49249" lon="6.73314"><ele>431.4</ele><time>2018-07-11T16:02:29Z</time></trkpt>
<trkpt lat="46.49262" lon="6.73336"><ele>432.6</ele><time>2018-07-11T16:02:37Z</time></trkpt>
<trkpt lat="46.49269" lon="6.73345"><ele>433.2</ele><time>2018-07-11T16:02:41Z</time></trkpt>
<trkpt lat="46.49282" lon="6.73356"><ele>434</ele><time>2018-07-11T16:02:47Z</time></trkpt>
<trkpt lat="46.49301" lon="6.73366"><ele>435.2</ele><time>2018-07-11T16:02:55Z</time></trkpt>
<trkpt lat="46.49319" lon="6.73374"><ele>436.2</ele><time>2018-07-11T16:03:02Z</time></trkpt>
<trkpt lat="46.49338" lon="6.73383"><ele>437.2</ele><time>2018-07-11T16:03:09Z</time></trkpt>
<trkpt lat="46.49346" lon="6.73388"><ele>437.8</ele><time>2018-07-11T16:03:12Z</time></trkpt>
<trkpt lat="46.49353" lon="6.73396"><ele>438.2</ele><time>2018-07-11T16:03:15Z</time></trkpt>
<trkpt lat="46.4936" lon="6.73441"><ele>441.6</ele><time>2018-07-11T16:03:26Z</time></trkpt>
<trkpt lat="46.49346" lon="6.73463"><ele>443.4</ele><time>2018-07-11T16:03:33Z</time></trkpt>
<trkpt lat="46.49338" lon="6.73489"><ele>444.2</ele><time>2018-07-11T16:03:40Z</time></trkpt>
<trkpt lat="46.49337" lon="6.73518"><ele>444.8</ele><time>2018-07-11T16:03:47Z</time></trkpt>
<trkpt lat="46.49339" lon="6.73544"><ele>445.2</ele><time>2018-07-11T16:03:53Z</time></trkpt>
<trkpt lat="46.49341" lon="6.73574"><ele>446</ele><time>2018-07-11T16:04:00Z</time></trkpt>
<trkpt lat="46.49341" lon="6.73589"><ele>446.8</ele><time>2018-07-11T16:04:03Z</time></trkpt>
<trkpt lat="46.49341" lon="6.73619"><ele>448.4</ele><time>2018-07-11T16:04:09Z</time></trkpt>
<trkpt lat="46.49338" lon="6.7365"><ele>448.8</ele><time>2018-07-11T16:04:14Z</time></trkpt>
<trkpt lat="46.49334" lon="6.73682"><ele>447.8</ele><time>2018-07-11T16:04:18Z</time></trkpt>
<trkpt lat="46.49334" lon="6.7369"><ele>447.2</ele><time>2018-07-11T16:04:19Z</time></trkpt>
<trkpt lat="46.49328" lon="6.73718"><ele>448.6</ele><time>2018-07-11T16:04:23Z</time></trkpt>
<trkpt lat="46.49322" lon="6.73746"><ele>447.6</ele><time>2018-07-11T16:04:27Z</time></trkpt>
<trkpt lat="46.49317" lon="6.73759"><ele>447.2</ele><time>2018-07-11T16:04:29Z</time></trkpt>
<trkpt lat="46.49307" lon="6.73785"><ele>447</ele><time>2018-07-11T16:04:33Z</time></trkpt>
<trkpt lat="46.49298" lon="6.73811"><ele>445.6</ele><time>2018-07-11T16:04:37Z</time></trkpt>
<trkpt lat="46.49288" lon="6.73837"><ele>445.6</ele><time>2018-07-11T16:04:41Z</time></trkpt>
<trkpt lat="46.4928" lon="6.73864"><ele>445.8</ele><time>2018-07-11T16:04:46Z</time></trkpt>
<trkpt lat="46.49277" lon="6.73891"><ele>445.8</ele><time>2018-07-11T16:04:51Z</time></trkpt>
<trkpt lat="46.49276" lon="6.7392"><ele>446.2</ele><time>2018-07-11T16:04:57Z</time></trkpt>
<trkpt lat="46.49278" lon="6.73949"><ele>446.6</ele><time>2018-07-11T16:05:03Z</time></trkpt>
<trkpt lat="46.49279" lon="6.73964"><ele>447</ele><time>2018-07-11T16:05:06Z</time></trkpt>
<trkpt lat="46.49282" lon="6.73995"><ele>447.8</ele><time>2018-07-11T16:05:12Z</time></trkpt>
<trkpt lat="46.49283" lon="6.74023"><ele>448.6</ele><time>2018-07-11T16:05:17Z</time></trkpt>
<trkpt lat="46.49282" lon="6.7404"><ele>449</ele><time>2018-07-11T16:05:20Z</time></trkpt>
<trkpt lat="46.49278" lon="6.74067"><ele>450</ele><time>2018-07-11T16:05:25Z</time></trkpt>
<trkpt lat="46.49267" lon="6.74114"><ele>452</ele><time>2018-07-11T16:05:34Z</time></trkpt>
<trkpt lat="46.49261" lon="6.74141"><ele>453</ele><time>2018-07-11T16:05:39Z</time></trkpt>
<trkpt lat="46.49255" lon="6.74168"><ele>454</ele><time>2018-07-11T16:05:44Z</time></trkpt>
<trkpt lat="46.49251" lon="6.74194"><ele>455</ele><time>2018-07-11T16:05:49Z</time></trkpt>
<trkpt lat="46.49251" lon="6.74222"><ele>455.4</ele><time>2018-07-11T16:05:54Z</time></trkpt>
<trkpt lat="46.49255" lon="6.74248"><ele>456.2</ele><time>2018-07-11T16:05:59Z</time></trkpt>
<trkpt lat="46.49257" lon="6.74274"><ele>457</ele><time>2018-07-11T16:06:04Z</time></trkpt>
<trkpt lat="46.49252" lon="6.74304"><ele>458.4</ele><time>2018-07-11T16:06:10Z</time></trkpt>
<trkpt lat="46.49242" lon="6.74331"><ele>459.6</ele><time>2018-07-11T16:06:16Z</time></trkpt>
<trkpt lat="46.49233" lon="6.74355"><ele>460.6</ele><time>2018-07-11T16:06:21Z</time></trkpt>
<trkpt lat="46.4923" lon="6.74371"><ele>461</ele><time>2018-07-11T16:06:24Z</time></trkpt>
<trkpt lat="46.4923" lon="6.74391"><ele>460.8</ele><time>2018-07-11T16:06:27Z</time></trkpt>
<trkpt lat="46.49232" lon="6.74424"><ele>460.6</ele><time>2018-07-11T16:06:31Z</time></trkpt>
<trkpt lat="46.49235" lon="6.74433"><ele>460.6</ele><time>2018-07-11T16:06:32Z</time></trkpt>
<trkpt lat="46.49246" lon="6.7446"><ele>460.8</ele><time>2018-07-11T16:06:35Z</time></trkpt>
<trkpt lat="46.49249" lon="6.7447"><ele>460.8</ele><time>2018-07-11T16:06:36Z</time></trkpt>
<trkpt lat="46.49248" lon="6.74499"><ele>461.4</ele><time>2018-07-11T16:06:39Z</time></trkpt>
<trkpt lat="46.49234" lon="6.74523"><ele>462.2</ele><time>2018-07-11T16:06:43Z</time></trkpt>
<trkpt lat="46.4923" lon="6.74528"><ele>462.4</ele><time>2018-07-11T16:06:44Z</time></trkpt>
<trkpt lat="46.49211" lon="6.74547"><ele>461.8</ele><time>2018-07-11T16:06:48Z</time></trkpt>
<trkpt lat="46.49201" lon="6.7456"><ele>461.8</ele><time>2018-07-11T16:06:50Z</time></trkpt>
<trkpt lat="46.49191" lon="6.74585"><ele>460.8</ele><time>2018-07-11T16:06:53Z</time></trkpt>
<trkpt lat="46.49188" lon="6.74604"><ele>460</ele><time>2018-07-11T16:06:55Z</time></trkpt>
<trkpt lat="46.49184" lon="6.74635"><ele>459</ele><time>2018-07-11T16:06:58Z</time></trkpt>
<trkpt lat="46.4918" lon="6.74667"><ele>457.8</ele><time>2018-07-11T16:07:01Z</time></trkpt>
<trkpt lat="46.49175" lon="6.74697"><ele>457.8</ele><time>2018-07-11T16:07:04Z</time></trkpt>
<trkpt lat="46.4917" lon="6.74722"><ele>458.2</ele><time>2018-07-11T16:07:08Z</time></trkpt>
<trkpt lat="46.49169" lon="6.74726"><ele>458.4</ele><time>2018-07-11T16:07:10Z</time></trkpt>
<trkpt lat="46.49156" lon="6.74757"><ele>457.6</ele><time>2018-07-11T16:07:19Z</time></trkpt>
<trkpt lat="46.49153" lon="6.74762"><ele>457.4</ele><time>2018-07-11T16:07:20Z</time></trkpt>
<trkpt lat="46.49143" lon="6.74777"><ele>458</ele><time>2018-07-11T16:07:23Z</time></trkpt>
<trkpt lat="46.49135" lon="6.74789"><ele>457.8</ele><time>2018-07-11T16:07:25Z</time></trkpt>
<trkpt lat="46.49123" lon="6.74805"><ele>456.6</ele><time>2018-07-11T16:07:28Z</time></trkpt>
<trkpt lat="46.49112" lon="6.74822"><ele>456</ele><time>2018-07-11T16:07:31Z</time></trkpt>
<trkpt lat="46.49098" lon="6.74839"><ele>455.8</ele><time>2018-07-11T16:07:35Z</time></trkpt>
<trkpt lat="46.49085" lon="6.74852"><ele>456</ele><time>2018-07-11T16:07:38Z</time></trkpt>
<trkpt lat="46.49067" lon="6.74861"><ele>455.6</ele><time>2018-07-11T16:07:42Z</time></trkpt>
<trkpt lat="46.4905" lon="6.7487"><ele>456</ele><time>2018-07-11T16:07:46Z</time></trkpt>
<trkpt lat="46.49041" lon="6.74876"><ele>456.6</ele><time>2018-07-11T16:07:48Z</time></trkpt>
<trkpt lat="46.49028" lon="6.74897"><ele>457.2</ele><time>2018-07-11T16:07:52Z</time></trkpt>
<trkpt lat="46.49025" lon="6.74902"><ele>456.8</ele><time>2018-07-11T16:07:53Z</time></trkpt>
<trkpt lat="46.49017" lon="6.74933"><ele>456.6</ele><time>2018-07-11T16:07:57Z</time></trkpt>
<trkpt lat="46.4901" lon="6.74965"><ele>458</ele><time>2018-07-11T16:08:01Z</time></trkpt>
<trkpt lat="46.49003" lon="6.74991"><ele>460.6</ele><time>2018-07-11T16:08:06Z</time></trkpt>
<trkpt lat="46.49" lon="6.75"><ele>461.4</ele><time>2018-07-11T16:08:08Z</time></trkpt>
<trkpt lat="46.48986" lon="6.75018"><ele>462.2</ele><time>2018-07-11T16:08:13Z</time></trkpt>
<trkpt lat="46.48977" lon="6.75029"><ele>462.6</ele><time>2018-07-11T16:08:16Z</time></trkpt>
<trkpt lat="46.48974" lon="6.75033"><ele>462.8</ele><time>2018-07-11T16:08:17Z</time></trkpt>
<trkpt lat="46.48958" lon="6.75052"><ele>463.6</ele><time>2018-07-11T16:08:22Z</time></trkpt>
<trkpt lat="46.48954" lon="6.75055"><ele>463.8</ele><time>2018-07-11T16:08:23Z</time></trkpt>
<trkpt lat="46.48942" lon="6.75078"><ele>464.8</ele><time>2018-07-11T16:08:28Z</time></trkpt>
<trkpt lat="46.48939" lon="6.75089"><ele>465.2</ele><time>2018-07-11T16:08:30Z</time></trkpt>
<trkpt lat="46.48938" lon="6.75101"><ele>465.4</ele><time>2018-07-11T16:08:32Z</time></trkpt>
<trkpt lat="46.48938" lon="6.75132"><ele>465.6</ele><time>2018-07-11T16:08:37Z</time></trkpt>
<trkpt lat="46.48936" lon="6.75157"><ele>466.4</ele><time>2018-07-11T16:08:41Z</time></trkpt>
<trkpt lat="46.48927" lon="6.75185"><ele>467.8</ele><time>2018-07-11T16:08:46Z</time></trkpt>
<trkpt lat="46.48924" lon="6.75189"><ele>468</ele><time>2018-07-11T16:08:47Z</time></trkpt>
<trkpt lat="46.48921" lon="6.75193"><ele>468.2</ele><time>2018-07-11T16:08:48Z</time></trkpt>
<trkpt lat="46.48905" lon="6.75209"><ele>469.6</ele><time>2018-07-11T16:08:53Z</time></trkpt>
<trkpt lat="46.48881" lon="6.75227"><ele>471.2</ele><time>2018-07-11T16:09:00Z</time></trkpt>
<trkpt lat="46.48865" lon="6.75244"><ele>472.4</ele><time>2018-07-11T16:09:05Z</time></trkpt>
<trkpt lat="46.48853" lon="6.7526"><ele>473.2</ele><time>2018-07-11T16:09:09Z</time></trkpt>
<trkpt lat="46.48849" lon="6.75269"><ele>473.4</ele><time>2018-07-11T16:09:11Z</time></trkpt>
<trkpt lat="46.48837" lon="6.75292"><ele>474.4</ele><time>2018-07-11T16:09:16Z</time></trkpt>
<trkpt lat="46.4883" lon="6.75305"><ele>474.6</ele><time>2018-07-11T16:09:19Z</time></trkpt>
<trkpt lat="46.48819" lon="6.75328"><ele>475.4</ele><time>2018-07-11T16:09:24Z</time></trkpt>
<trkpt lat="46.48808" lon="6.75347"><ele>476.4</ele><time>2018-07-11T16:09:28Z</time></trkpt>
<trkpt lat="46.48805" lon="6.75351"><ele>476.6</ele><time>2018-07-11T16:09:29Z</time></trkpt>
<trkpt lat="46.48793" lon="6.75375"><ele>477</ele><time>2018-07-11T16:09:34Z</time></trkpt>
<trkpt lat="46.48781" lon="6.75401"><ele>477.8</ele><time>2018-07-11T16:09:39Z</time></trkpt>
<trkpt lat="46.48767" lon="6.75425"><ele>478.4</ele><time>2018-07-11T16:09:44Z</time></trkpt>
<trkpt lat="46.48752" lon="6.75447"><ele>479.2</ele><time>2018-07-11T16:09:49Z</time></trkpt>
<trkpt lat="46.48735" lon="6.75467"><ele>479.6</ele><time>2018-07-11T16:09:54Z</time></trkpt>
<trkpt lat="46.48718" lon="6.75486"><ele>480.6</ele><time>2018-07-11T16:09:59Z</time></trkpt>
<trkpt lat="46.48701" lon="6.75506"><ele>481.6</ele><time>2018-07-11T16:10:04Z</time></trkpt>
<trkpt lat="46.48684" lon="6.75527"><ele>482.4</ele><time>2018-07-11T16:10:09Z</time></trkpt>
<trkpt lat="46.48668" lon="6.7555"><ele>483.6</ele><time>2018-07-11T16:10:14Z</time></trkpt>
<trkpt lat="46.48654" lon="6.75571"><ele>484.8</ele><time>2018-07-11T16:10:19Z</time></trkpt>
<trkpt lat="46.48643" lon="6.75591"><ele>486</ele><time>2018-07-11T16:10:24Z</time></trkpt>
<trkpt lat="46.4863" lon="6.75615"><ele>487.8</ele><time>2018-07-11T16:10:30Z</time></trkpt>
<trkpt lat="46.48617" lon="6.75638"><ele>489.4</ele><time>2018-07-11T16:10:36Z</time></trkpt>
<trkpt lat="46.48606" lon="6.75658"><ele>490.6</ele><time>2018-07-11T16:10:41Z</time></trkpt>
<trkpt lat="46.48593" lon="6.75681"><ele>492.2</ele><time>2018-07-11T16:10:47Z</time></trkpt>
<trkpt lat="46.48588" lon="6.75689"><ele>492.6</ele><time>2018-07-11T16:10:49Z</time></trkpt>
<trkpt lat="46.48584" lon="6.75696"><ele>493.2</ele><time>2018-07-11T16:10:51Z</time></trkpt>
<trkpt lat="46.48572" lon="6.75718"><ele>494.6</ele><time>2018-07-11T16:10:57Z</time></trkpt>
<trkpt lat="46.48551" lon="6.75752"><ele>497</ele><time>2018-07-11T16:11:07Z</time></trkpt>
<trkpt lat="46.48539" lon="6.75772"><ele>498.8</ele><time>2018-07-11T16:11:13Z</time></trkpt>
<trkpt lat="46.4853" lon="6.75786"><ele>500</ele><time>2018-07-11T16:11:17Z</time></trkpt>
<trkpt lat="46.48526" lon="6.75792"><ele>500.4</ele><time>2018-07-11T16:11:19Z</time></trkpt>
<trkpt lat="46.48514" lon="6.75813"><ele>501.6</ele><time>2018-07-11T16:11:25Z</time></trkpt>
<trkpt lat="46.48504" lon="6.7583"><ele>502.8</ele><time>2018-07-11T16:11:30Z</time></trkpt>
<trkpt lat="46.48492" lon="6.75851"><ele>504.2</ele><time>2018-07-11T16:11:36Z</time></trkpt>
<trkpt lat="46.4848" lon="6.75871"><ele>505.4</ele><time>2018-07-11T16:11:42Z</time></trkpt>
<trkpt lat="46.48464" lon="6.75889"><ele>506.4</ele><time>2018-07-11T16:11:49Z</time></trkpt>
<trkpt lat="46.48444" lon="6.75906"><ele>502.6</ele><time>2018-07-11T16:11:55Z</time></trkpt>
<trkpt lat="46.48425" lon="6.75912"><ele>499.2</ele><time>2018-07-11T16:11:58Z</time></trkpt>
<trkpt lat="46.48404" lon="6.75916"><ele>495.2</ele><time>2018-07-11T16:12:02Z</time></trkpt>
<trkpt lat="46.484" lon="6.75918"><ele>493.6</ele><time>2018-07-11T16:12:03Z</time></trkpt>
<trkpt lat="46.48383" lon="6.7593"><ele>488.6</ele><time>2018-07-11T16:12:06Z</time></trkpt>
<trkpt lat="46.48363" lon="6.75944"><ele>483.4</ele><time>2018-07-11T16:12:09Z</time></trkpt>
<trkpt lat="46.48345" lon="6.75958"><ele>479.8</ele><time>2018-07-11T16:12:12Z</time></trkpt>
<trkpt lat="46.48327" lon="6.75969"><ele>476.2</ele><time>2018-07-11T16:12:15Z</time></trkpt>
<trkpt lat="46.48307" lon="6.75981"><ele>472</ele><time>2018-07-11T16:12:18Z</time></trkpt>
<trkpt lat="46.48293" lon="6.7599"><ele>468.4</ele><time>2018-07-11T16:12:20Z</time></trkpt>
<trkpt lat="46.48271" lon="6.76003"><ele>462.2</ele><time>2018-07-11T16:12:23Z</time></trkpt>
<trkpt lat="46.48249" lon="6.76017"><ele>457</ele><time>2018-07-11T16:12:26Z</time></trkpt>
<trkpt lat="46.48227" lon="6.76027"><ele>452.4</ele><time>2018-07-11T16:12:29Z</time></trkpt>
<trkpt lat="46.48215" lon="6.76031"><ele>450</ele><time>2018-07-11T16:12:31Z</time></trkpt>
<trkpt lat="46.4821" lon="6.76033"><ele>448.8</ele><time>2018-07-11T16:12:32Z</time></trkpt>
<trkpt lat="46.48206" lon="6.76035"><ele>447.6</ele><time>2018-07-11T16:12:33Z</time></trkpt>
<trkpt lat="46.48198" lon="6.76039"><ele>445.4</ele><time>2018-07-11T16:12:35Z</time></trkpt>
<trkpt lat="46.48194" lon="6.76043"><ele>444.6</ele><time>2018-07-11T16:12:36Z</time></trkpt>
<trkpt lat="46.48189" lon="6.76048"><ele>443.4</ele><time>2018-07-11T16:12:37Z</time></trkpt>
<trkpt lat="46.48179" lon="6.76062"><ele>441.8</ele><time>2018-07-11T16:12:39Z</time></trkpt>
<trkpt lat="46.48169" lon="6.76078"><ele>441.4</ele><time>2018-07-11T16:12:41Z</time></trkpt>
<trkpt lat="46.4816" lon="6.76102"><ele>443</ele><time>2018-07-11T16:12:44Z</time></trkpt>
<trkpt lat="46.48158" lon="6.76108"><ele>443.4</ele><time>2018-07-11T16:12:45Z</time></trkpt>
<trkpt lat="46.48153" lon="6.76119"><ele>444</ele><time>2018-07-11T16:12:47Z</time></trkpt>
<trkpt lat="46.48141" lon="6.76144"><ele>443.6</ele><time>2018-07-11T16:12:52Z</time></trkpt>
<trkpt lat="46.48129" lon="6.76168"><ele>440.8</ele><time>2018-07-11T16:12:56Z</time></trkpt>
<trkpt lat="46.48116" lon="6.7619"><ele>439.6</ele><time>2018-07-11T16:12:59Z</time></trkpt>
<trkpt lat="46.48107" lon="6.76204"><ele>438.6</ele><time>2018-07-11T16:13:01Z</time></trkpt>
<trkpt lat="46.48094" lon="6.7623"><ele>437.8</ele><time>2018-07-11T16:13:04Z</time></trkpt>
<trkpt lat="46.48081" lon="6.76256"><ele>437.6</ele><time>2018-07-11T16:13:07Z</time></trkpt>
<trkpt lat="46.4807" lon="6.76281"><ele>438.2</ele><time>2018-07-11T16:13:10Z</time></trkpt>
<trkpt lat="46.4806" lon="6.76306"><ele>438.4</ele><time>2018-07-11T16:13:13Z</time></trkpt>
<trkpt lat="46.48049" lon="6.7633"><ele>437.2</ele><time>2018-07-11T16:13:16Z</time></trkpt>
<trkpt lat="46.48033" lon="6.76357"><ele>433.8</ele><time>2018-07-11T16:13:19Z</time></trkpt>
<trkpt lat="46.48018" lon="6.76373"><ele>431.6</ele><time>2018-07-11T16:13:21Z</time></trkpt>
<trkpt lat="46.48004" lon="6.76392"><ele>429.6</ele><time>2018-07-11T16:13:23Z</time></trkpt>
<trkpt lat="46.47993" lon="6.76417"><ele>428.2</ele><time>2018-07-11T16:13:25Z</time></trkpt>
<trkpt lat="46.47982" lon="6.76441"><ele>428.4</ele><time>2018-07-11T16:13:27Z</time></trkpt>
<trkpt lat="46.47971" lon="6.76474"><ele>429.8</ele><time>2018-07-11T16:13:30Z</time></trkpt>
<trkpt lat="46.47964" lon="6.76505"><ele>429.2</ele><time>2018-07-11T16:13:33Z</time></trkpt>
<trkpt lat="46.47959" lon="6.76527"><ele>428.2</ele><time>2018-07-11T16:13:35Z</time></trkpt>
<trkpt lat="46.47952" lon="6.7655"><ele>428.6</ele><time>2018-07-11T16:13:37Z</time></trkpt>
<trkpt lat="46.47944" lon="6.7657"><ele>429</ele><time>2018-07-11T16:13:39Z</time></trkpt>
<trkpt lat="46.47934" lon="6.76598"><ele>429.4</ele><time>2018-07-11T16:13:42Z</time></trkpt>
<trkpt lat="46.47928" lon="6.76616"><ele>429.6</ele><time>2018-07-11T16:13:44Z</time></trkpt>
<trkpt lat="46.47917" lon="6.76643"><ele>430</ele><time>2018-07-11T16:13:47Z</time></trkpt>
<trkpt lat="46.47914" lon="6.76651"><ele>430.2</ele><time>2018-07-11T16:13:48Z</time></trkpt>
<trkpt lat="46.47903" lon="6.76676"><ele>430.6</ele><time>2018-07-11T16:13:51Z</time></trkpt>
<trkpt lat="46.47892" lon="6.767"><ele>430</ele><time>2018-07-11T16:13:54Z</time></trkpt>
<trkpt lat="46.47884" lon="6.76719"><ele>429.2</ele><time>2018-07-11T16:13:56Z</time></trkpt>
<trkpt lat="46.47872" lon="6.76749"><ele>428.6</ele><time>2018-07-11T16:13:59Z</time></trkpt>
<trkpt lat="46.47863" lon="6.76778"><ele>430.4</ele><time>2018-07-11T16:14:02Z</time></trkpt>
<trkpt lat="46.47856" lon="6.76808"><ele>432</ele><time>2018-07-11T16:14:06Z</time></trkpt>
<trkpt lat="46.47853" lon="6.76819"><ele>432.8</ele><time>2018-07-11T16:14:08Z</time></trkpt>
<trkpt lat="46.47848" lon="6.76844"><ele>434.8</ele><time>2018-07-11T16:14:14Z</time></trkpt>
<trkpt lat="46.47845" lon="6.7686"><ele>436</ele><time>2018-07-11T16:14:19Z</time></trkpt>
<trkpt lat="46.47842" lon="6.76876"><ele>437.2</ele><time>2018-07-11T16:14:24Z</time></trkpt>
<trkpt lat="46.47837" lon="6.76902"><ele>439.4</ele><time>2018-07-11T16:14:32Z</time></trkpt>
<trkpt lat="46.47832" lon="6.76925"><ele>441.2</ele><time>2018-07-11T16:14:39Z</time></trkpt>
<trkpt lat="46.47827" lon="6.76941"><ele>442.2</ele><time>2018-07-11T16:14:44Z</time></trkpt>
<trkpt lat="46.47819" lon="6.76965"><ele>443.8</ele><time>2018-07-11T16:14:51Z</time></trkpt>
<trkpt lat="46.4781" lon="6.76988"><ele>445.4</ele><time>2018-07-11T16:14:58Z</time></trkpt>
<trkpt lat="46.47799" lon="6.77028"><ele>447.6</ele><time>2018-07-11T16:15:09Z</time></trkpt>
<trkpt lat="46.47791" lon="6.77052"><ele>448.2</ele><time>2018-07-11T16:15:15Z</time></trkpt>
<trkpt lat="46.47782" lon="6.7708"><ele>449</ele><time>2018-07-11T16:15:21Z</time></trkpt>
<trkpt lat="46.47774" lon="6.77103"><ele>449.6</ele><time>2018-07-11T16:15:26Z</time></trkpt>
<trkpt lat="46.47764" lon="6.77125"><ele>448.8</ele><time>2018-07-11T16:15:30Z</time></trkpt>
<trkpt lat="46.47746" lon="6.7715"><ele>447.6</ele><time>2018-07-11T16:15:34Z</time></trkpt>
<trkpt lat="46.47736" lon="6.77172"><ele>448</ele><time>2018-07-11T16:15:37Z</time></trkpt>
<trkpt lat="46.4773" lon="6.77199"><ele>449</ele><time>2018-07-11T16:15:41Z</time></trkpt>
<trkpt lat="46.47725" lon="6.77221"><ele>450.2</ele><time>2018-07-11T16:15:45Z</time></trkpt>
<trkpt lat="46.4772" lon="6.77238"><ele>451.6</ele><time>2018-07-11T16:15:49Z</time></trkpt>
<trkpt lat="46.47718" lon="6.77243"><ele>452</ele><time>2018-07-11T16:15:51Z</time></trkpt>
<trkpt lat="46.47715" lon="6.77255"><ele>453.2</ele><time>2018-07-11T16:15:55Z</time></trkpt>
<trkpt lat="46.47712" lon="6.77278"><ele>454.8</ele><time>2018-07-11T16:16:03Z</time></trkpt>
<trkpt lat="46.47711" lon="6.77284"><ele>455.4</ele><time>2018-07-11T16:16:05Z</time></trkpt>
<trkpt lat="46.47706" lon="6.77309"><ele>458</ele><time>2018-07-11T16:16:14Z</time></trkpt>
<trkpt lat="46.47701" lon="6.77323"><ele>459.2</ele><time>2018-07-11T16:16:19Z</time></trkpt>
<trkpt lat="46.47692" lon="6.77344"><ele>461</ele><time>2018-07-11T16:16:26Z</time></trkpt>
<trkpt lat="46.47673" lon="6.77384"><ele>461.8</ele><time>2018-07-11T16:16:36Z</time></trkpt>
<trkpt lat="46.47664" lon="6.77412"><ele>462</ele><time>2018-07-11T16:16:42Z</time></trkpt>
<trkpt lat="46.47658" lon="6.77436"><ele>462</ele><time>2018-07-11T16:16:47Z</time></trkpt>
<trkpt lat="46.47651" lon="6.7746"><ele>462</ele><time>2018-07-11T16:16:52Z</time></trkpt>
<trkpt lat="46.47639" lon="6.77482"><ele>462</ele><time>2018-07-11T16:16:57Z</time></trkpt>
<trkpt lat="46.47628" lon="6.77507"><ele>460.2</ele><time>2018-07-11T16:17:01Z</time></trkpt>
<trkpt lat="46.47622" lon="6.77538"><ele>457.6</ele><time>2018-07-11T16:17:05Z</time></trkpt>
<trkpt lat="46.47615" lon="6.77564"><ele>454.6</ele><time>2018-07-11T16:17:08Z</time></trkpt>
<trkpt lat="46.47612" lon="6.77586"><ele>451.4</ele><time>2018-07-11T16:17:10Z</time></trkpt>
<trkpt lat="46.47607" lon="6.77621"><ele>445.8</ele><time>2018-07-11T16:17:13Z</time></trkpt>
<trkpt lat="46.476" lon="6.77652"><ele>441.2</ele><time>2018-07-11T16:17:16Z</time></trkpt>
<trkpt lat="46.47596" lon="6.77685"><ele>436.2</ele><time>2018-07-11T16:17:20Z</time></trkpt>
<trkpt lat="46.476" lon="6.77699"><ele>433.8</ele><time>2018-07-11T16:17:22Z</time></trkpt>
<trkpt lat="46.47622" lon="6.7771"><ele>430.8</ele><time>2018-07-11T16:17:26Z</time></trkpt>
<trkpt lat="46.47627" lon="6.77713"><ele>430.4</ele><time>2018-07-11T16:17:27Z</time></trkpt>
<trkpt lat="46.4763" lon="6.77719"><ele>430.2</ele><time>2018-07-11T16:17:28Z</time></trkpt>
<trkpt lat="46.47631" lon="6.77725"><ele>430</ele><time>2018-07-11T16:17:29Z</time></trkpt>
<trkpt lat="46.4763" lon="6.77732"><ele>429.8</ele><time>2018-07-11T16:17:30Z</time></trkpt>
<trkpt lat="46.4762" lon="6.77748"><ele>430.2</ele><time>2018-07-11T16:17:33Z</time></trkpt>
<trkpt lat="46.47606" lon="6.77766"><ele>431</ele><time>2018-07-11T16:17:37Z</time></trkpt>
<trkpt lat="46.47603" lon="6.7777"><ele>431</ele><time>2018-07-11T16:17:38Z</time></trkpt>
<trkpt lat="46.47607" lon="6.77787"><ele>430.2</ele><time>2018-07-11T16:17:44Z</time></trkpt>
<trkpt lat="46.47611" lon="6.77792"><ele>430.6</ele><time>2018-07-11T16:17:46Z</time></trkpt>
<trkpt lat="46.47615" lon="6.77797"><ele>431.8</ele><time>2018-07-11T16:17:48Z</time></trkpt>
<trkpt lat="46.47619" lon="6.77803"><ele>432</ele><time>2018-07-11T16:17:50Z</time></trkpt>
<trkpt lat="46.47622" lon="6.7781"><ele>431.8</ele><time>2018-07-11T16:17:52Z</time></trkpt>
<trkpt lat="46.47625" lon="6.77815"><ele>431.4</ele><time>2018-07-11T16:17:54Z</time></trkpt>
<trkpt lat="46.47628" lon="6.77822"><ele>431.4</ele><time>2018-07-11T16:17:57Z</time></trkpt>
<trkpt lat="46.4763" lon="6.77824"><ele>431.2</ele><time>2018-07-11T16:17:58Z</time></trkpt>
<trkpt lat="46.47635" lon="6.77836"><ele>432.4</ele><time>2018-07-11T16:18:03Z</time></trkpt>
<trkpt lat="46.47636" lon="6.77839"><ele>432.6</ele><time>2018-07-11T16:18:04Z</time></trkpt>
<trkpt lat="46.47643" lon="6.77854"><ele>437.4</ele><time>2018-07-11T16:18:10Z</time></trkpt>
<trkpt lat="46.47644" lon="6.77856"><ele>437.4</ele><time>2018-07-11T16:18:11Z</time></trkpt>
<trkpt lat="46.47643" lon="6.77862"><ele>439.8</ele><time>2018-07-11T16:18:14Z</time></trkpt>
<trkpt lat="46.47661" lon="6.77858"><ele>444</ele><time>2018-07-11T16:18:23Z</time></trkpt>
<trkpt lat="46.47679" lon="6.7786"><ele>448.6</ele><time>2018-07-11T16:18:31Z</time></trkpt>
<trkpt lat="46.47684" lon="6.77864"><ele>449.2</ele><time>2018-07-11T16:18:33Z</time></trkpt>
<trkpt lat="46.47694" lon="6.7788"><ele>448.8</ele><time>2018-07-11T16:18:38Z</time></trkpt>
<trkpt lat="46.47701" lon="6.77905"><ele>446.8</ele><time>2018-07-11T16:18:42Z</time></trkpt>
<trkpt lat="46.47709" lon="6.77934"><ele>444.8</ele><time>2018-07-11T16:18:46Z</time></trkpt>
<trkpt lat="46.47712" lon="6.7796"><ele>443.6</ele><time>2018-07-11T16:18:49Z</time></trkpt>
<trkpt lat="46.47714" lon="6.77988"><ele>443.4</ele><time>2018-07-11T16:18:52Z</time></trkpt>
<trkpt lat="46.47718" lon="6.78016"><ele>443.6</ele><time>2018-07-11T16:18:55Z</time></trkpt>
<trkpt lat="46.47719" lon="6.78034"><ele>444.4</ele><time>2018-07-11T16:18:57Z</time></trkpt>
<trkpt lat="46.47718" lon="6.78064"><ele>445.2</ele><time>2018-07-11T16:19:01Z</time></trkpt>
<trkpt lat="46.47712" lon="6.781"><ele>446.4</ele><time>2018-07-11T16:19:08Z</time></trkpt>
<trkpt lat="46.47702" lon="6.78128"><ele>446.8</ele><time>2018-07-11T16:19:13Z</time></trkpt>
<trkpt lat="46.47692" lon="6.78154"><ele>446.4</ele><time>2018-07-11T16:19:17Z</time></trkpt>
<trkpt lat="46.47677" lon="6.7818"><ele>444.4</ele><time>2018-07-11T16:19:21Z</time></trkpt>
<trkpt lat="46.47667" lon="6.78194"><ele>443.4</ele><time>2018-07-11T16:19:23Z</time></trkpt>
<trkpt lat="46.47655" lon="6.78207"><ele>442.4</ele><time>2018-07-11T16:19:25Z</time></trkpt>
<trkpt lat="46.4764" lon="6.78232"><ele>441.4</ele><time>2018-07-11T16:19:28Z</time></trkpt>
<trkpt lat="46.47626" lon="6.7826"><ele>439.6</ele><time>2018-07-11T16:19:31Z</time></trkpt>
<trkpt lat="46.47621" lon="6.7827"><ele>438.8</ele><time>2018-07-11T16:19:32Z</time></trkpt>
<trkpt lat="46.47603" lon="6.78297"><ele>434.8</ele><time>2018-07-11T16:19:35Z</time></trkpt>
<trkpt lat="46.47592" lon="6.78316"><ele>432.4</ele><time>2018-07-11T16:19:37Z</time></trkpt>
<trkpt lat="46.47577" lon="6.78342"><ele>430</ele><time>2018-07-11T16:19:40Z</time></trkpt>
<trkpt lat="46.47572" lon="6.7836"><ele>429.4</ele><time>2018-07-11T16:19:42Z</time></trkpt>
<trkpt lat="46.47572" lon="6.7837"><ele>429.2</ele><time>2018-07-11T16:19:43Z</time></trkpt>
<trkpt lat="46.47568" lon="6.78402"><ele>425.4</ele><time>2018-07-11T16:19:46Z</time></trkpt>
<trkpt lat="46.47564" lon="6.78413"><ele>423.8</ele><time>2018-07-11T16:19:47Z</time></trkpt>
<trkpt lat="46.47557" lon="6.78438"><ele>421.4</ele><time>2018-07-11T16:19:49Z</time></trkpt>
<trkpt lat="46.47547" lon="6.78465"><ele>420</ele><time>2018-07-11T16:19:52Z</time></trkpt>
<trkpt lat="46.47534" lon="6.78491"><ele>418.2</ele><time>2018-07-11T16:19:56Z</time></trkpt>
<trkpt lat="46.47528" lon="6.78506"><ele>416.4</ele><time>2018-07-11T16:19:58Z</time></trkpt>
<trkpt lat="46.47528" lon="6.78522"><ele>414</ele><time>2018-07-11T16:20:00Z</time></trkpt>
<trkpt lat="46.47538" lon="6.78535"><ele>411.8</ele><time>2018-07-11T16:20:02Z</time></trkpt>
<trkpt lat="46.47545" lon="6.7854"><ele>411</ele><time>2018-07-11T16:20:03Z</time></trkpt>
<trkpt lat="46.47567" lon="6.7856"><ele>408.6</ele><time>2018-07-11T16:20:06Z</time></trkpt>
<trkpt lat="46.47574" lon="6.78568"><ele>408.8</ele><time>2018-07-11T16:20:07Z</time></trkpt>
<trkpt lat="46.47582" lon="6.78594"><ele>411.6</ele><time>2018-07-11T16:20:10Z</time></trkpt>
<trkpt lat="46.47581" lon="6.78615"><ele>411.8</ele><time>2018-07-11T16:20:13Z</time></trkpt>
<trkpt lat="46.4758" lon="6.78638"><ele>411.6</ele><time>2018-07-11T16:20:16Z</time></trkpt>
<trkpt lat="46.47579" lon="6.78672"><ele>410.2</ele><time>2018-07-11T16:20:20Z</time></trkpt>
<trkpt lat="46.47578" lon="6.78691"><ele>409.6</ele><time>2018-07-11T16:20:22Z</time></trkpt>
<trkpt lat="46.47578" lon="6.78716"><ele>411.4</ele><time>2018-07-11T16:20:25Z</time></trkpt>
<trkpt lat="46.47573" lon="6.78742"><ele>412.6</ele><time>2018-07-11T16:20:29Z</time></trkpt>
<trkpt lat="46.47565" lon="6.78774"><ele>411.6</ele><time>2018-07-11T16:20:33Z</time></trkpt>
<trkpt lat="46.47561" lon="6.78795"><ele>410.8</ele><time>2018-07-11T16:20:35Z</time></trkpt>
<trkpt lat="46.47558" lon="6.78829"><ele>409.6</ele><time>2018-07-11T16:20:38Z</time></trkpt>
<trkpt lat="46.47558" lon="6.78864"><ele>408.4</ele><time>2018-07-11T16:20:41Z</time></trkpt>
<trkpt lat="46.47558" lon="6.78876"><ele>407.6</ele><time>2018-07-11T16:20:42Z</time></trkpt>
<trkpt lat="46.47548" lon="6.78906"><ele>405.6</ele><time>2018-07-11T16:20:45Z</time></trkpt>
<trkpt lat="46.47544" lon="6.78928"><ele>405</ele><time>2018-07-11T16:20:47Z</time></trkpt>
<trkpt lat="46.47541" lon="6.78938"><ele>405.2</ele><time>2018-07-11T16:20:48Z</time></trkpt>
<trkpt lat="46.47533" lon="6.78964"><ele>406.2</ele><time>2018-07-11T16:20:51Z</time></trkpt>
<trkpt lat="46.47523" lon="6.78988"><ele>406.2</ele><time>2018-07-11T16:20:54Z</time></trkpt>
<trkpt lat="46.4751" lon="6.79014"><ele>406.2</ele><time>2018-07-11T16:20:58Z</time></trkpt>
<trkpt lat="46.47498" lon="6.79039"><ele>404.2</ele><time>2018-07-11T16:21:01Z</time></trkpt>
<trkpt lat="46.47488" lon="6.79071"><ele>404</ele><time>2018-07-11T16:21:04Z</time></trkpt>
<trkpt lat="46.47479" lon="6.79103"><ele>405</ele><time>2018-07-11T16:21:07Z</time></trkpt>
<trkpt lat="46.4747" lon="6.79132"><ele>406.2</ele><time>2018-07-11T16:21:10Z</time></trkpt>
<trkpt lat="46.47466" lon="6.79158"><ele>408.4</ele><time>2018-07-11T16:21:13Z</time></trkpt>
<trkpt lat="46.47463" lon="6.79187"><ele>411.4</ele><time>2018-07-11T16:21:18Z</time></trkpt>
<trkpt lat="46.47459" lon="6.79217"><ele>414.8</ele><time>2018-07-11T16:21:24Z</time></trkpt>
<trkpt lat="46.47451" lon="6.79249"><ele>417.2</ele><time>2018-07-11T16:21:30Z</time></trkpt>
<trkpt lat="46.47444" lon="6.79277"><ele>418.6</ele><time>2018-07-11T16:21:35Z</time></trkpt>
<trkpt lat="46.47439" lon="6.79302"><ele>421</ele><time>2018-07-11T16:21:41Z</time></trkpt>
<trkpt lat="46.47436" lon="6.7933"><ele>423.8</ele><time>2018-07-11T16:21:48Z</time></trkpt>
<trkpt lat="46.47436" lon="6.7934"><ele>425</ele><time>2018-07-11T16:21:51Z</time></trkpt>
<trkpt lat="46.47431" lon="6.79366"><ele>427</ele><time>2018-07-11T16:21:58Z</time></trkpt>
<trkpt lat="46.47426" lon="6.79394"><ele>429.8</ele><time>2018-07-11T16:22:08Z</time></trkpt>
<trkpt lat="46.47426" lon="6.79396"><ele>430</ele><time>2018-07-11T16:22:09Z</time></trkpt>
<trkpt lat="46.47431" lon="6.79402"><ele>430.4</ele><time>2018-07-11T16:22:14Z</time></trkpt>
<trkpt lat="46.47434" lon="6.79402"><ele>431</ele><time>2018-07-11T16:22:17Z</time></trkpt>
<trkpt lat="46.47438" lon="6.79396"><ele>431.6</ele><time>2018-07-11T16:22:21Z</time></trkpt>
<trkpt lat="46.47448" lon="6.79375"><ele>435.2</ele><time>2018-07-11T16:22:34Z</time></trkpt>
<trkpt lat="46.47458" lon="6.79353"><ele>438.6</ele><time>2018-07-11T16:22:47Z</time></trkpt>
<trkpt lat="46.47468" lon="6.7933"><ele>442</ele><time>2018-07-11T16:23:00Z</time></trkpt>
<trkpt lat="46.47471" lon="6.79321"><ele>442.8</ele><time>2018-07-11T16:23:05Z</time></trkpt>
<trkpt lat="46.47473" lon="6.79301"><ele>444.2</ele><time>2018-07-11T16:23:15Z</time></trkpt>
<trkpt lat="46.47485" lon="6.79306"><ele>445</ele><time>2018-07-11T16:23:25Z</time></trkpt>
<trkpt lat="46.47497" lon="6.79289"><ele>448</ele><time>2018-07-11T16:23:36Z</time></trkpt>
<trkpt lat="46.47505" lon="6.79265"><ele>451.4</ele><time>2018-07-11T16:23:48Z</time></trkpt>
<trkpt lat="46.47512" lon="6.79259"><ele>453.2</ele><time>2018-07-11T16:23:53Z</time></trkpt>
<trkpt lat="46.47516" lon="6.79262"><ele>454</ele><time>2018-07-11T16:23:55Z</time></trkpt>
<trkpt lat="46.47512" lon="6.79287"><ele>455.6</ele><time>2018-07-11T16:24:05Z</time></trkpt>
<trkpt lat="46.47506" lon="6.79312"><ele>455.8</ele><time>2018-07-11T16:24:14Z</time></trkpt>
<trkpt lat="46.47491" lon="6.79347"><ele>455.6</ele><time>2018-07-11T16:24:25Z</time></trkpt>
<trkpt lat="46.4748" lon="6.79369"><ele>455.6</ele><time>2018-07-11T16:24:31Z</time></trkpt>
<trkpt lat="46.47468" lon="6.79396"><ele>454.8</ele><time>2018-07-11T16:24:36Z</time></trkpt>
<trkpt lat="46.47456" lon="6.79424"><ele>454</ele><time>2018-07-11T16:24:40Z</time></trkpt>
<trkpt lat="46.47453" lon="6.79432"><ele>453.6</ele><time>2018-07-11T16:24:41Z</time></trkpt>
<trkpt lat="46.47447" lon="6.79459"><ele>453</ele><time>2018-07-11T16:24:44Z</time></trkpt>
<trkpt lat="46.47443" lon="6.7948"><ele>452.2</ele><time>2018-07-11T16:24:46Z</time></trkpt>
<trkpt lat="46.4744" lon="6.79501"><ele>451.6</ele><time>2018-07-11T16:24:48Z</time></trkpt>
<trkpt lat="46.47433" lon="6.79533"><ele>451</ele><time>2018-07-11T16:24:51Z</time></trkpt>
<trkpt lat="46.47429" lon="6.79552"><ele>451.8</ele><time>2018-07-11T16:24:53Z</time></trkpt>
<trkpt lat="46.47431" lon="6.79568"><ele>452.8</ele><time>2018-07-11T16:24:55Z</time></trkpt>
<trkpt lat="46.47432" lon="6.79573"><ele>453.4</ele><time>2018-07-11T16:24:56Z</time></trkpt>
<trkpt lat="46.47426" lon="6.796"><ele>453.4</ele><time>2018-07-11T16:25:02Z</time></trkpt>
<trkpt lat="46.47423" lon="6.79606"><ele>453.2</ele><time>2018-07-11T16:25:03Z</time></trkpt>
<trkpt lat="46.4741" lon="6.79637"><ele>450.8</ele><time>2018-07-11T16:25:07Z</time></trkpt>
<trkpt lat="46.47401" lon="6.79669"><ele>448.6</ele><time>2018-07-11T16:25:10Z</time></trkpt>
<trkpt lat="46.47394" lon="6.79692"><ele>447.2</ele><time>2018-07-11T16:25:12Z</time></trkpt>
<trkpt lat="46.47388" lon="6.79718"><ele>446</ele><time>2018-07-11T16:25:14Z</time></trkpt>
<trkpt lat="46.47386" lon="6.79731"><ele>445.6</ele><time>2018-07-11T16:25:15Z</time></trkpt>
<trkpt lat="46.47383" lon="6.79757"><ele>445.2</ele><time>2018-07-11T16:25:17Z</time></trkpt>
<trkpt lat="46.47379" lon="6.79793"><ele>445</ele><time>2018-07-11T16:25:20Z</time></trkpt>
<trkpt lat="46.47376" lon="6.79825"><ele>444.6</ele><time>2018-07-11T16:25:23Z</time></trkpt>
<trkpt lat="46.47375" lon="6.79834"><ele>444.8</ele><time>2018-07-11T16:25:24Z</time></trkpt>
<trkpt lat="46.47382" lon="6.79853"><ele>447.2</ele><time>2018-07-11T16:25:28Z</time></trkpt>
<trkpt lat="46.47384" lon="6.79855"><ele>447.6</ele><time>2018-07-11T16:25:29Z</time></trkpt>
<trkpt lat="46.47386" lon="6.79857"><ele>448.2</ele><time>2018-07-11T16:25:31Z</time></trkpt>
<trkpt lat="46.47391" lon="6.79862"><ele>449.4</ele><time>2018-07-11T16:25:35Z</time></trkpt>
<trkpt lat="46.47392" lon="6.79863"><ele>449.6</ele><time>2018-07-11T16:25:36Z</time></trkpt>
<trkpt lat="46.47396" lon="6.79869"><ele>450.4</ele><time>2018-07-11T16:25:40Z</time></trkpt>
<trkpt lat="46.47398" lon="6.79872"><ele>450.8</ele><time>2018-07-11T16:25:42Z</time></trkpt>
<trkpt lat="46.47399" lon="6.79873"><ele>450.8</ele><time>2018-07-11T16:25:43Z</time></trkpt>
<trkpt lat="46.47403" lon="6.79879"><ele>451.6</ele><time>2018-07-11T16:25:47Z</time></trkpt>
<trkpt lat="46.4741" lon="6.79893"><ele>451.2</ele><time>2018-07-11T16:25:54Z</time></trkpt>
<trkpt lat="46.47406" lon="6.79921"><ele>450</ele><time>2018-07-11T16:25:58Z</time></trkpt>
<trkpt lat="46.47407" lon="6.79926"><ele>450</ele><time>2018-07-11T16:25:59Z</time></trkpt>
<trkpt lat="46.47408" lon="6.79929"><ele>451</ele><time>2018-07-11T16:26:00Z</time></trkpt>
<trkpt lat="46.47411" lon="6.79942"><ele>454.2</ele><time>2018-07-11T16:26:08Z</time></trkpt>
<trkpt lat="46.47412" lon="6.79945"><ele>455.2</ele><time>2018-07-11T16:26:10Z</time></trkpt>
<trkpt lat="46.47412" lon="6.79948"><ele>456.2</ele><time>2018-07-11T16:26:12Z</time></trkpt>
<trkpt lat="46.47413" lon="6.79953"><ele>457.4</ele><time>2018-07-11T16:26:15Z</time></trkpt>
<trkpt lat="46.47413" lon="6.7996"><ele>459.2</ele><time>2018-07-11T16:26:19Z</time></trkpt>
<trkpt lat="46.47415" lon="6.79965"><ele>460.4</ele><time>2018-07-11T16:26:22Z</time></trkpt>
<trkpt lat="46.47416" lon="6.7997"><ele>461.6</ele><time>2018-07-11T16:26:25Z</time></trkpt>
<trkpt lat="46.47417" lon="6.79979"><ele>464</ele><time>2018-07-11T16:26:31Z</time></trkpt>
<trkpt lat="46.47417" lon="6.79981"><ele>464.4</ele><time>2018-07-11T16:26:34Z</time></trkpt>
<trkpt lat="46.47416" lon="6.8"><ele>464.4</ele><time>2018-07-11T16:26:41Z</time></trkpt>
<trkpt lat="46.47403" lon="6.8002"><ele>466.4</ele><time>2018-07-11T16:26:52Z</time></trkpt>
<trkpt lat="46.47396" lon="6.80046"><ele>467.8</ele><time>2018-07-11T16:27:02Z</time></trkpt>
<trkpt lat="46.47392" lon="6.80072"><ele>468.8</ele><time>2018-07-11T16:27:11Z</time></trkpt>
<trkpt lat="46.47389" lon="6.80098"><ele>469.4</ele><time>2018-07-11T16:27:19Z</time></trkpt>
<trkpt lat="46.47388" lon="6.80111"><ele>470</ele><time>2018-07-11T16:27:23Z</time></trkpt>
<trkpt lat="46.47388" lon="6.80137"><ele>470.8</ele><time>2018-07-11T16:27:31Z</time></trkpt>
<trkpt lat="46.4739" lon="6.80161"><ele>471.6</ele><time>2018-07-11T16:27:38Z</time></trkpt>
<trkpt lat="46.47388" lon="6.80185"><ele>472</ele><time>2018-07-11T16:27:44Z</time></trkpt>
<trkpt lat="46.47386" lon="6.80214"><ele>472.4</ele><time>2018-07-11T16:27:51Z</time></trkpt>
<trkpt lat="46.47383" lon="6.80243"><ele>473</ele><time>2018-07-11T16:27:58Z</time></trkpt>
<trkpt lat="46.47389" lon="6.80283"><ele>474.6</ele><time>2018-07-11T16:28:10Z</time></trkpt>
<trkpt lat="46.47389" lon="6.80309"><ele>476.2</ele><time>2018-07-11T16:28:19Z</time></trkpt>
<trkpt lat="46.47388" lon="6.80334"><ele>478</ele><time>2018-07-11T16:28:29Z</time></trkpt>
<trkpt lat="46.47381" lon="6.80361"><ele>480.4</ele><time>2018-07-11T16:28:41Z</time></trkpt>
<trkpt lat="46.47376" lon="6.80377"><ele>482.2</ele><time>2018-07-11T16:28:49Z</time></trkpt>
<trkpt lat="46.47374" lon="6.80398"><ele>483.4</ele><time>2018-07-11T16:28:58Z</time></trkpt>
<trkpt lat="46.47372" lon="6.80425"><ele>485.2</ele><time>2018-07-11T16:29:09Z</time></trkpt>
<trkpt lat="46.47367" lon="6.80451"><ele>487.8</ele><time>2018-07-11T16:29:21Z</time></trkpt>
<trkpt lat="46.47359" lon="6.80484"><ele>488.8</ele><time>2018-07-11T16:29:37Z</time></trkpt>
<trkpt lat="46.47354" lon="6.8051"><ele>490.4</ele><time>2018-07-11T16:29:49Z</time></trkpt>
<trkpt lat="46.47352" lon="6.80537"><ele>492.6</ele><time>2018-07-11T16:30:02Z</time></trkpt>
<trkpt lat="46.47359" lon="6.80561"><ele>496.2</ele><time>2018-07-11T16:30:18Z</time></trkpt>
<trkpt lat="46.47363" lon="6.80564"><ele>497.2</ele><time>2018-07-11T16:30:23Z</time></trkpt>
<trkpt lat="46.47386" lon="6.80576"><ele>502.2</ele><time>2018-07-11T16:30:43Z</time></trkpt>
<trkpt lat="46.47389" lon="6.80581"><ele>503.4</ele><time>2018-07-11T16:30:47Z</time></trkpt>
<trkpt lat="46.4739" lon="6.80584"><ele>503.6</ele><time>2018-07-11T16:30:49Z</time></trkpt>
<trkpt lat="46.47395" lon="6.80596"><ele>505.4</ele><time>2018-07-11T16:30:58Z</time></trkpt>
<trkpt lat="46.47394" lon="6.80601"><ele>505.8</ele><time>2018-07-11T16:31:01Z</time></trkpt>
<trkpt lat="46.47393" lon="6.80634"><ele>509.2</ele><time>2018-07-11T16:31:19Z</time></trkpt>
<trkpt lat="46.47388" lon="6.80661"><ele>511.4</ele><time>2018-07-11T16:31:33Z</time></trkpt>
<trkpt lat="46.47381" lon="6.80685"><ele>514</ele><time>2018-07-11T16:31:46Z</time></trkpt>
<trkpt lat="46.47378" lon="6.80692"><ele>515</ele><time>2018-07-11T16:31:50Z</time></trkpt>
<trkpt lat="46.47379" lon="6.80706"><ele>516.6</ele><time>2018-07-11T16:31:57Z</time></trkpt>
<trkpt lat="46.47388" lon="6.80728"><ele>519.8</ele><time>2018-07-11T16:32:10Z</time></trkpt>
<trkpt lat="46.47393" lon="6.80761"><ele>523</ele><time>2018-07-11T16:32:28Z</time></trkpt>
<trkpt lat="46.47396" lon="6.80788"><ele>525</ele><time>2018-07-11T16:32:41Z</time></trkpt>
<trkpt lat="46.47397" lon="6.80815"><ele>527.2</ele><time>2018-07-11T16:32:53Z</time></trkpt>
<trkpt lat="46.47392" lon="6.80842"><ele>524.4</ele><time>2018-07-11T16:32:59Z</time></trkpt>
<trkpt lat="46.47387" lon="6.80872"><ele>521.6</ele><time>2018-07-11T16:33:02Z</time></trkpt>
<trkpt lat="46.47385" lon="6.80909"><ele>520</ele><time>2018-07-11T16:33:05Z</time></trkpt>
<trkpt lat="46.47386" lon="6.80945"><ele>519.8</ele><time>2018-07-11T16:33:08Z</time></trkpt>
<trkpt lat="46.47388" lon="6.80978"><ele>520</ele><time>2018-07-11T16:33:11Z</time></trkpt>
<trkpt lat="46.4739" lon="6.81006"><ele>520.2</ele><time>2018-07-11T16:33:14Z</time></trkpt>
<trkpt lat="46.47393" lon="6.81038"><ele>520</ele><time>2018-07-11T16:33:18Z</time></trkpt>
<trkpt lat="46.47395" lon="6.81069"><ele>520.2</ele><time>2018-07-11T16:33:22Z</time></trkpt>
<trkpt lat="46.47396" lon="6.81096"><ele>520.6</ele><time>2018-07-11T16:33:26Z</time></trkpt>
<trkpt lat="46.47394" lon="6.81126"><ele>521</ele><time>2018-07-11T16:33:31Z</time></trkpt>
<trkpt lat="46.47386" lon="6.8115"><ele>520</ele><time>2018-07-11T16:33:35Z</time></trkpt>
<trkpt lat="46.47381" lon="6.81177"><ele>517.8</ele><time>2018-07-11T16:33:38Z</time></trkpt>
<trkpt lat="46.47379" lon="6.81211"><ele>516.8</ele><time>2018-07-11T16:33:41Z</time></trkpt>
<trkpt lat="46.47379" lon="6.81242"><ele>518.4</ele><time>2018-07-11T16:33:44Z</time></trkpt>
<trkpt lat="46.47379" lon="6.81274"><ele>519.2</ele><time>2018-07-11T16:33:48Z</time></trkpt>
<trkpt lat="46.47382" lon="6.81303"><ele>520</ele><time>2018-07-11T16:33:52Z</time></trkpt>
<trkpt lat="46.47388" lon="6.81328"><ele>520.6</ele><time>2018-07-11T16:33:56Z</time></trkpt>
<trkpt lat="46.47395" lon="6.81353"><ele>520.6</ele><time>2018-07-11T16:34:00Z</time></trkpt>
<trkpt lat="46.47404" lon="6.81382"><ele>521.2</ele><time>2018-07-11T16:34:05Z</time></trkpt>
<trkpt lat="46.47411" lon="6.81406"><ele>522.6</ele><time>2018-07-11T16:34:10Z</time></trkpt>
<trkpt lat="46.47419" lon="6.81431"><ele>524.4</ele><time>2018-07-11T16:34:16Z</time></trkpt>
<trkpt lat="46.47426" lon="6.81455"><ele>525.8</ele><time>2018-07-11T16:34:22Z</time></trkpt>
<trkpt lat="46.4743" lon="6.81487"><ele>524.6</ele><time>2018-07-11T16:34:27Z</time></trkpt>
<trkpt lat="46.47432" lon="6.81515"><ele>523.4</ele><time>2018-07-11T16:34:30Z</time></trkpt>
<trkpt lat="46.47441" lon="6.81543"><ele>522.6</ele><time>2018-07-11T16:34:33Z</time></trkpt>
<trkpt lat="46.47445" lon="6.81552"><ele>522.6</ele><time>2018-07-11T16:34:34Z</time></trkpt>
<trkpt lat="46.47448" lon="6.81562"><ele>522.2</ele><time>2018-07-11T16:34:35Z</time></trkpt>
<trkpt lat="46.47451" lon="6.81596"><ele>521.4</ele><time>2018-07-11T16:34:38Z</time></trkpt>
<trkpt lat="46.47447" lon="6.81618"><ele>521</ele><time>2018-07-11T16:34:40Z</time></trkpt>
<trkpt lat="46.47439" lon="6.81652"><ele>520.2</ele><time>2018-07-11T16:34:43Z</time></trkpt>
<trkpt lat="46.47437" lon="6.81663"><ele>520</ele><time>2018-07-11T16:34:44Z</time></trkpt>
<trkpt lat="46.47438" lon="6.81699"><ele>518.6</ele><time>2018-07-11T16:34:47Z</time></trkpt>
<trkpt lat="46.47441" lon="6.81736"><ele>516.8</ele><time>2018-07-11T16:34:50Z</time></trkpt>
<trkpt lat="46.47443" lon="6.81762"><ele>515.8</ele><time>2018-07-11T16:34:52Z</time></trkpt>
<trkpt lat="46.47444" lon="6.81789"><ele>515.2</ele><time>2018-07-11T16:34:54Z</time></trkpt>
<trkpt lat="46.47446" lon="6.81826"><ele>515.6</ele><time>2018-07-11T16:34:57Z</time></trkpt>
<trkpt lat="46.47447" lon="6.81857"><ele>516.2</ele><time>2018-07-11T16:35:00Z</time></trkpt>
<trkpt lat="46.47447" lon="6.81891"><ele>517</ele><time>2018-07-11T16:35:04Z</time></trkpt>
<trkpt lat="46.47443" lon="6.8192"><ele>518.2</ele><time>2018-07-11T16:35:09Z</time></trkpt>
<trkpt lat="46.47445" lon="6.81928"><ele>519</ele><time>2018-07-11T16:35:11Z</time></trkpt>
<trkpt lat="46.47447" lon="6.81932"><ele>519</ele><time>2018-07-11T16:35:12Z</time></trkpt>
<trkpt lat="46.47448" lon="6.81935"><ele>519.2</ele><time>2018-07-11T16:35:13Z</time></trkpt>
<trkpt lat="46.47449" lon="6.81949"><ele>519.8</ele><time>2018-07-11T16:35:17Z</time></trkpt>
<trkpt lat="46.47443" lon="6.81977"><ele>520.8</ele><time>2018-07-11T16:35:27Z</time></trkpt>
<trkpt lat="46.47453" lon="6.81984"><ele>521.2</ele><time>2018-07-11T16:35:32Z</time></trkpt>
<trkpt lat="46.47466" lon="6.81994"><ele>521.6</ele><time>2018-07-11T16:35:36Z</time></trkpt>
<trkpt lat="46.47477" lon="6.81957"><ele>521.6</ele><time>2018-07-11T16:35:43Z</time></trkpt>
<trkpt lat="46.47484" lon="6.81984"><ele>521.6</ele><time>2018-07-11T16:35:48Z</time></trkpt>
<trkpt lat="46.47486" lon="6.81993"><ele>522.4</ele><time>2018-07-11T16:35:52Z</time></trkpt>
<trkpt lat="46.47487" lon="6.81998"><ele>523.2</ele><time>2018-07-11T16:35:54Z</time></trkpt>
<trkpt lat="46.47485" lon="6.8201"><ele>525</ele><time>2018-07-11T16:35:59Z</time></trkpt>
<trkpt lat="46.47483" lon="6.82018"><ele>526.4</ele><time>2018-07-11T16:36:03Z</time></trkpt>
<trkpt lat="46.4748" lon="6.82028"><ele>527.4</ele><time>2018-07-11T16:36:08Z</time></trkpt>
<trkpt lat="46.4748" lon="6.8203"><ele>527.4</ele><time>2018-07-11T16:36:09Z</time></trkpt>
<trkpt lat="46.47478" lon="6.82037"><ele>528.4</ele><time>2018-07-11T16:36:13Z</time></trkpt>
<trkpt lat="46.47476" lon="6.82058"><ele>530.2</ele><time>2018-07-11T16:36:24Z</time></trkpt>
<trkpt lat="46.47483" lon="6.82082"><ele>532.6</ele><time>2018-07-11T16:36:39Z</time></trkpt>
<trkpt lat="46.47495" lon="6.82103"><ele>535.8</ele><time>2018-07-11T16:36:57Z</time></trkpt>
<trkpt lat="46.47496" lon="6.82106"><ele>536</ele><time>2018-07-11T16:36:59Z</time></trkpt>
<trkpt lat="46.47505" lon="6.8212"><ele>538.8</ele><time>2018-07-11T16:37:14Z</time></trkpt>
<trkpt lat="46.47507" lon="6.82126"><ele>539.8</ele><time>2018-07-11T16:37:19Z</time></trkpt>
<trkpt lat="46.47508" lon="6.8213"><ele>540.6</ele><time>2018-07-11T16:37:22Z</time></trkpt>
<trkpt lat="46.47515" lon="6.82148"><ele>544.4</ele><time>2018-07-11T16:37:37Z</time></trkpt>
<trkpt lat="46.47522" lon="6.82164"><ele>547.6</ele><time>2018-07-11T16:37:50Z</time></trkpt>
<trkpt lat="46.47523" lon="6.82179"><ele>549.8</ele><time>2018-07-11T16:38:00Z</time></trkpt>
<trkpt lat="46.47522" lon="6.82182"><ele>549.8</ele><time>2018-07-11T16:38:02Z</time></trkpt>
<trkpt lat="46.47523" lon="6.82193"><ele>550.8</ele><time>2018-07-11T16:38:09Z</time></trkpt>
<trkpt lat="46.47524" lon="6.82225"><ele>554.2</ele><time>2018-07-11T16:38:30Z</time></trkpt>
<trkpt lat="46.47527" lon="6.82252"><ele>557.4</ele><time>2018-07-11T16:38:48Z</time></trkpt>
<trkpt lat="46.47533" lon="6.82277"><ele>560.8</ele><time>2018-07-11T16:39:06Z</time></trkpt>
<trkpt lat="46.47547" lon="6.82294"><ele>564.2</ele><time>2018-07-11T16:39:24Z</time></trkpt>
<trkpt lat="46.47556" lon="6.82298"><ele>566</ele><time>2018-07-11T16:39:33Z</time></trkpt>
<trkpt lat="46.47574" lon="6.82307"><ele>568</ele><time>2018-07-11T16:39:50Z</time></trkpt>
<trkpt lat="46.47589" lon="6.82324"><ele>570.4</ele><time>2018-07-11T16:40:02Z</time></trkpt>
<trkpt lat="46.47591" lon="6.82329"><ele>571</ele><time>2018-07-11T16:40:04Z</time></trkpt>
<trkpt lat="46.47599" lon="6.82354"><ele>573.2</ele><time>2018-07-11T16:40:13Z</time></trkpt>
<trkpt lat="46.47586" lon="6.82371"><ele>573.4</ele><time>2018-07-11T16:40:23Z</time></trkpt>
<trkpt lat="46.47568" lon="6.82375"><ele>573</ele><time>2018-07-11T16:40:33Z</time></trkpt>
<trkpt lat="46.47564" lon="6.82376"><ele>572.8</ele><time>2018-07-11T16:40:37Z</time></trkpt>
<trkpt lat="46.47564" lon="6.82375"><ele>572.8</ele><time>2018-07-11T16:40:41Z</time></trkpt>
<trkpt lat="46.47564" lon="6.82375"><ele>572.8</ele><time>2018-07-11T16:40:52Z</time></trkpt>
<trkpt lat="46.47564" lon="6.82375"><ele>573</ele><time>2018-07-11T16:40:54Z</time></trkpt>
<trkpt lat="46.47564" lon="6.82375"><ele>572.8</ele><time>2018-07-11T16:40:56Z</time></trkpt>
<trkpt lat="46.47564" lon="6.82375"><ele>572.6</ele><time>2018-07-11T16:41:00Z</time></trkpt>
<trkpt lat="46.47564" lon="6.82376"><ele>572.2</ele><time>2018-07-11T16:41:06Z</time></trkpt>
<trkpt lat="46.47564" lon="6.82376"><ele>572.2</ele><time>2018-07-11T16:41:08Z</time></trkpt>
<trkpt lat="46.47564" lon="6.82376"><ele>572.2</ele><time>2018-07-11T16:41:18Z</time></trkpt>
<trkpt lat="46.47564" lon="6.82376"><ele>572</ele><time>2018-07-11T16:41:32Z</time></trkpt>
<trkpt lat="46.47564" lon="6.82375"><ele>571.8</ele><time>2018-07-11T16:42:02Z</time></trkpt>
<trkpt lat="46.47567" lon="6.82373"><ele>572.6</ele><time>2018-07-11T16:42:20Z</time></trkpt>
<trkpt lat="46.47567" lon="6.82371"><ele>572.6</ele><time>2018-07-11T16:42:42Z</time></trkpt>
<trkpt lat="46.47567" lon="6.82371"><ele>572.8</ele><time>2018-07-11T16:42:45Z</time></trkpt>
<trkpt lat="46.47567" lon="6.82371"><ele>572.6</ele><time>2018-07-11T16:42:51Z</time></trkpt>
<trkpt lat="46.47567" lon="6.82371"><ele>572.4</ele><time>2018-07-11T16:43:00Z</time></trkpt>
<trkpt lat="46.4759" lon="6.82362"><ele>572</ele><time>2018-07-11T16:43:18Z</time></trkpt>
<trkpt lat="46.47596" lon="6.8236"><ele>572</ele><time>2018-07-11T16:43:21Z</time></trkpt>
<trkpt lat="46.47595" lon="6.82343"><ele>570.2</ele><time>2018-07-11T16:43:25Z</time></trkpt>
<trkpt lat="46.47583" lon="6.82314"><ele>567.6</ele><time>2018-07-11T16:43:29Z</time></trkpt>
<trkpt lat="46.47579" lon="6.82307"><ele>566.4</ele><time>2018-07-11T16:43:30Z</time></trkpt>
<trkpt lat="46.4756" lon="6.82297"><ele>563.4</ele><time>2018-07-11T16:43:33Z</time></trkpt>
<trkpt lat="46.47538" lon="6.82284"><ele>559.2</ele><time>2018-07-11T16:43:37Z</time></trkpt>
<trkpt lat="46.47528" lon="6.82259"><ele>555.6</ele><time>2018-07-11T16:43:40Z</time></trkpt>
<trkpt lat="46.47523" lon="6.82225"><ele>552.2</ele><time>2018-07-11T16:43:43Z</time></trkpt>
<trkpt lat="46.47522" lon="6.82199"><ele>550</ele><time>2018-07-11T16:43:45Z</time></trkpt>
<trkpt lat="46.47526" lon="6.82172"><ele>548.4</ele><time>2018-07-11T16:43:47Z</time></trkpt>
<trkpt lat="46.47535" lon="6.82148"><ele>549</ele><time>2018-07-11T16:43:49Z</time></trkpt>
<trkpt lat="46.47538" lon="6.82137"><ele>549.2</ele><time>2018-07-11T16:43:50Z</time></trkpt>
<trkpt lat="46.47539" lon="6.82103"><ele>549.2</ele><time>2018-07-11T16:43:53Z</time></trkpt>
<trkpt lat="46.47539" lon="6.8207"><ele>548.8</ele><time>2018-07-11T16:43:56Z</time></trkpt>
<trkpt lat="46.47538" lon="6.82038"><ele>548.4</ele><time>2018-07-11T16:43:59Z</time></trkpt>
<trkpt lat="46.47537" lon="6.82006"><ele>548</ele><time>2018-07-11T16:44:02Z</time></trkpt>
<trkpt lat="46.47539" lon="6.81973"><ele>547</ele><time>2018-07-11T16:44:05Z</time></trkpt>
<trkpt lat="46.4754" lon="6.81962"><ele>546.6</ele><time>2018-07-11T16:44:06Z</time></trkpt>
<trkpt lat="46.47543" lon="6.81924"><ele>544.8</ele><time>2018-07-11T16:44:09Z</time></trkpt>
<trkpt lat="46.47546" lon="6.81896"><ele>544.2</ele><time>2018-07-11T16:44:11Z</time></trkpt>
<trkpt lat="46.47548" lon="6.81869"><ele>543.8</ele><time>2018-07-11T16:44:13Z</time></trkpt>
<trkpt lat="46.47548" lon="6.81856"><ele>543.8</ele><time>2018-07-11T16:44:14Z</time></trkpt>
<trkpt lat="46.47541" lon="6.81819"><ele>542.4</ele><time>2018-07-11T16:44:17Z</time></trkpt>
<trkpt lat="46.47531" lon="6.81783"><ele>541.6</ele><time>2018-07-11T16:44:20Z</time></trkpt>
<trkpt lat="46.47526" lon="6.8176"><ele>541.4</ele><time>2018-07-11T16:44:22Z</time></trkpt>
<trkpt lat="46.47525" lon="6.81727"><ele>542.8</ele><time>2018-07-11T16:44:25Z</time></trkpt>
<trkpt lat="46.47528" lon="6.81698"><ele>546</ele><time>2018-07-11T16:44:30Z</time></trkpt>
<trkpt lat="46.47529" lon="6.81679"><ele>547.6</ele><time>2018-07-11T16:44:36Z</time></trkpt>
<trkpt lat="46.47529" lon="6.81676"><ele>548</ele><time>2018-07-11T16:44:37Z</time></trkpt>
<trkpt lat="46.47531" lon="6.81637"><ele>549</ele><time>2018-07-11T16:44:47Z</time></trkpt>
<trkpt lat="46.47532" lon="6.81626"><ele>548.6</ele><time>2018-07-11T16:44:49Z</time></trkpt>
<trkpt lat="46.47534" lon="6.81598"><ele>547</ele><time>2018-07-11T16:44:53Z</time></trkpt>
<trkpt lat="46.47536" lon="6.81569"><ele>545.4</ele><time>2018-07-11T16:44:56Z</time></trkpt>
<trkpt lat="46.47537" lon="6.81539"><ele>545.8</ele><time>2018-07-11T16:44:59Z</time></trkpt>
<trkpt lat="46.47538" lon="6.81507"><ele>547.6</ele><time>2018-07-11T16:45:03Z</time></trkpt>
<trkpt lat="46.4754" lon="6.81479"><ele>549</ele><time>2018-07-11T16:45:08Z</time></trkpt>
<trkpt lat="46.47542" lon="6.8145"><ele>550.6</ele><time>2018-07-11T16:45:14Z</time></trkpt>
<trkpt lat="46.47544" lon="6.81425"><ele>552</ele><time>2018-07-11T16:45:20Z</time></trkpt>
<trkpt lat="46.47549" lon="6.81379"><ele>552</ele><time>2018-07-11T16:45:31Z</time></trkpt>
<trkpt lat="46.47552" lon="6.81358"><ele>551.8</ele><time>2018-07-11T16:45:34Z</time></trkpt>
<trkpt lat="46.47553" lon="6.81326"><ele>552.4</ele><time>2018-07-11T16:45:39Z</time></trkpt>
<trkpt lat="46.47553" lon="6.81299"><ele>553.2</ele><time>2018-07-11T16:45:44Z</time></trkpt>
<trkpt lat="46.47553" lon="6.81294"><ele>553.2</ele><time>2018-07-11T16:45:45Z</time></trkpt>
<trkpt lat="46.47552" lon="6.81267"><ele>553.8</ele><time>2018-07-11T16:45:50Z</time></trkpt>
<trkpt lat="46.47552" lon="6.8124"><ele>554.4</ele><time>2018-07-11T16:45:55Z</time></trkpt>
<trkpt lat="46.47547" lon="6.81214"><ele>554.8</ele><time>2018-07-11T16:46:00Z</time></trkpt>
<trkpt lat="46.47537" lon="6.81187"><ele>553.8</ele><time>2018-07-11T16:46:05Z</time></trkpt>
<trkpt lat="46.47531" lon="6.81156"><ele>553.8</ele><time>2018-07-11T16:46:09Z</time></trkpt>
<trkpt lat="46.47529" lon="6.81124"><ele>553.8</ele><time>2018-07-11T16:46:13Z</time></trkpt>
<trkpt lat="46.47527" lon="6.81092"><ele>554.4</ele><time>2018-07-11T16:46:17Z</time></trkpt>
<trkpt lat="46.47526" lon="6.81062"><ele>555</ele><time>2018-07-11T16:46:21Z</time></trkpt>
<trkpt lat="46.47524" lon="6.81033"><ele>555.8</ele><time>2018-07-11T16:46:25Z</time></trkpt>
<trkpt lat="46.47524" lon="6.81006"><ele>556.4</ele><time>2018-07-11T16:46:29Z</time></trkpt>
<trkpt lat="46.47523" lon="6.80977"><ele>558.2</ele><time>2018-07-11T16:46:35Z</time></trkpt>
<trkpt lat="46.47523" lon="6.80974"><ele>558.4</ele><time>2018-07-11T16:46:36Z</time></trkpt>
<trkpt lat="46.47522" lon="6.80968"><ele>559.2</ele><time>2018-07-11T16:46:39Z</time></trkpt>
<trkpt lat="46.47523" lon="6.8096"><ele>560.6</ele><time>2018-07-11T16:46:43Z</time></trkpt>
<trkpt lat="46.47524" lon="6.80956"><ele>561</ele><time>2018-07-11T16:46:45Z</time></trkpt>
<trkpt lat="46.47528" lon="6.8095"><ele>562.2</ele><time>2018-07-11T16:46:49Z</time></trkpt>
<trkpt lat="46.47538" lon="6.80937"><ele>565</ele><time>2018-07-11T16:46:59Z</time></trkpt>
<trkpt lat="46.47542" lon="6.80931"><ele>566.4</ele><time>2018-07-11T16:47:06Z</time></trkpt>
<trkpt lat="46.47545" lon="6.80927"><ele>567.6</ele><time>2018-07-11T16:47:11Z</time></trkpt>
<trkpt lat="46.47547" lon="6.80924"><ele>568.2</ele><time>2018-07-11T16:47:13Z</time></trkpt>
<trkpt lat="46.47551" lon="6.80918"><ele>569.4</ele><time>2018-07-11T16:47:19Z</time></trkpt>
<trkpt lat="46.47547" lon="6.80894"><ele>567.6</ele><time>2018-07-11T16:47:26Z</time></trkpt>
<trkpt lat="46.47544" lon="6.80887"><ele>567</ele><time>2018-07-11T16:47:27Z</time></trkpt>
<trkpt lat="46.47533" lon="6.80859"><ele>564.2</ele><time>2018-07-11T16:47:30Z</time></trkpt>
<trkpt lat="46.4753" lon="6.80833"><ele>562.2</ele><time>2018-07-11T16:47:32Z</time></trkpt>
<trkpt lat="46.47531" lon="6.80806"><ele>559.8</ele><time>2018-07-11T16:47:34Z</time></trkpt>
<trkpt lat="46.47528" lon="6.80776"><ele>556.6</ele><time>2018-07-11T16:47:37Z</time></trkpt>
<trkpt lat="46.47525" lon="6.80769"><ele>555.4</ele><time>2018-07-11T16:47:38Z</time></trkpt>
<trkpt lat="46.47521" lon="6.80763"><ele>554.4</ele><time>2018-07-11T16:47:39Z</time></trkpt>
<trkpt lat="46.475" lon="6.80746"><ele>550.2</ele><time>2018-07-11T16:47:43Z</time></trkpt>
<trkpt lat="46.47494" lon="6.80743"><ele>548</ele><time>2018-07-11T16:47:45Z</time></trkpt>
<trkpt lat="46.47499" lon="6.80714"><ele>548.4</ele><time>2018-07-11T16:47:51Z</time></trkpt>
<trkpt lat="46.47503" lon="6.80692"><ele>548</ele><time>2018-07-11T16:47:55Z</time></trkpt>
<trkpt lat="46.47506" lon="6.80662"><ele>547</ele><time>2018-07-11T16:47:59Z</time></trkpt>
<trkpt lat="46.4751" lon="6.80635"><ele>545.8</ele><time>2018-07-11T16:48:02Z</time></trkpt>
<trkpt lat="46.47516" lon="6.80607"><ele>545.2</ele><time>2018-07-11T16:48:05Z</time></trkpt>
<trkpt lat="46.47521" lon="6.80579"><ele>545</ele><time>2018-07-11T16:48:08Z</time></trkpt>
<trkpt lat="46.47527" lon="6.80554"><ele>545.2</ele><time>2018-07-11T16:48:11Z</time></trkpt>
<trkpt lat="46.47535" lon="6.80523"><ele>546</ele><time>2018-07-11T16:48:15Z</time></trkpt>
<trkpt lat="46.47539" lon="6.80508"><ele>546.6</ele><time>2018-07-11T16:48:17Z</time></trkpt>
<trkpt lat="46.47546" lon="6.80481"><ele>547.8</ele><time>2018-07-11T16:48:21Z</time></trkpt>
<trkpt lat="46.47554" lon="6.80453"><ele>549.8</ele><time>2018-07-11T16:48:26Z</time></trkpt>
<trkpt lat="46.47558" lon="6.80436"><ele>551.4</ele><time>2018-07-11T16:48:30Z</time></trkpt>
<trkpt lat="46.47562" lon="6.80424"><ele>552.8</ele><time>2018-07-11T16:48:34Z</time></trkpt>
<trkpt lat="46.47565" lon="6.80412"><ele>554</ele><time>2018-07-11T16:48:38Z</time></trkpt>
<trkpt lat="46.47569" lon="6.80397"><ele>555.6</ele><time>2018-07-11T16:48:43Z</time></trkpt>
<trkpt lat="46.47572" lon="6.80386"><ele>556.4</ele><time>2018-07-11T16:48:47Z</time></trkpt>
<trkpt lat="46.47579" lon="6.80359"><ele>558.6</ele><time>2018-07-11T16:48:56Z</time></trkpt>
<trkpt lat="46.47586" lon="6.80315"><ele>560.4</ele><time>2018-07-11T16:49:08Z</time></trkpt>
<trkpt lat="46.47592" lon="6.80288"><ele>562.2</ele><time>2018-07-11T16:49:15Z</time></trkpt>
<trkpt lat="46.47598" lon="6.80263"><ele>564.4</ele><time>2018-07-11T16:49:25Z</time></trkpt>
<trkpt lat="46.47603" lon="6.80237"><ele>566.4</ele><time>2018-07-11T16:49:37Z</time></trkpt>
<trkpt lat="46.47605" lon="6.8021"><ele>569.8</ele><time>2018-07-11T16:49:50Z</time></trkpt>
<trkpt lat="46.47609" lon="6.80183"><ele>572.8</ele><time>2018-07-11T16:50:01Z</time></trkpt>
<trkpt lat="46.47611" lon="6.80169"><ele>574</ele><time>2018-07-11T16:50:06Z</time></trkpt>
<trkpt lat="46.47616" lon="6.80142"><ele>575.6</ele><time>2018-07-11T16:50:15Z</time></trkpt>
<trkpt lat="46.4762" lon="6.80116"><ele>575.8</ele><time>2018-07-11T16:50:21Z</time></trkpt>
<trkpt lat="46.47624" lon="6.80086"><ele>575.2</ele><time>2018-07-11T16:50:26Z</time></trkpt>
<trkpt lat="46.47625" lon="6.80059"><ele>574.8</ele><time>2018-07-11T16:50:30Z</time></trkpt>
<trkpt lat="46.47625" lon="6.80046"><ele>574.6</ele><time>2018-07-11T16:50:32Z</time></trkpt>
<trkpt lat="46.47624" lon="6.80032"><ele>574.4</ele><time>2018-07-11T16:50:34Z</time></trkpt>
<trkpt lat="46.47631" lon="6.80008"><ele>574</ele><time>2018-07-11T16:50:38Z</time></trkpt>
<trkpt lat="46.47639" lon="6.80001"><ele>573.6</ele><time>2018-07-11T16:50:40Z</time></trkpt>
<trkpt lat="46.47653" lon="6.7999"><ele>573</ele><time>2018-07-11T16:50:43Z</time></trkpt>
<trkpt lat="46.47665" lon="6.79966"><ele>572.6</ele><time>2018-07-11T16:50:46Z</time></trkpt>
<trkpt lat="46.47667" lon="6.7994"><ele>572</ele><time>2018-07-11T16:50:49Z</time></trkpt>
<trkpt lat="46.47657" lon="6.79914"><ele>571</ele><time>2018-07-11T16:50:52Z</time></trkpt>
<trkpt lat="46.47644" lon="6.79891"><ele>569</ele><time>2018-07-11T16:50:55Z</time></trkpt>
<trkpt lat="46.47634" lon="6.79864"><ele>566.4</ele><time>2018-07-11T16:50:58Z</time></trkpt>
<trkpt lat="46.47632" lon="6.79855"><ele>565.2</ele><time>2018-07-11T16:50:59Z</time></trkpt>
<trkpt lat="46.47628" lon="6.79833"><ele>563</ele><time>2018-07-11T16:51:01Z</time></trkpt>
<trkpt lat="46.47626" lon="6.79807"><ele>560.2</ele><time>2018-07-11T16:51:03Z</time></trkpt>
<trkpt lat="46.47623" lon="6.79779"><ele>556.8</ele><time>2018-07-11T16:51:05Z</time></trkpt>
<trkpt lat="46.47619" lon="6.79752"><ele>554.2</ele><time>2018-07-11T16:51:07Z</time></trkpt>
<trkpt lat="46.47617" lon="6.79739"><ele>553.2</ele><time>2018-07-11T16:51:08Z</time></trkpt>
<trkpt lat="46.47616" lon="6.79726"><ele>559.8</ele><time>2018-07-11T16:51:09Z</time></trkpt>
<trkpt lat="46.47616" lon="6.79694"><ele>560.4</ele><time>2018-07-11T16:51:12Z</time></trkpt>
<trkpt lat="46.47618" lon="6.79673"><ele>560.8</ele><time>2018-07-11T16:51:15Z</time></trkpt>
<trkpt lat="46.47627" lon="6.79649"><ele>560.6</ele><time>2018-07-11T16:51:19Z</time></trkpt>
<trkpt lat="46.47637" lon="6.79627"><ele>560</ele><time>2018-07-11T16:51:23Z</time></trkpt>
<trkpt lat="46.47645" lon="6.79601"><ele>558.4</ele><time>2018-07-11T16:51:27Z</time></trkpt>
<trkpt lat="46.4765" lon="6.79575"><ele>556.8</ele><time>2018-07-11T16:51:30Z</time></trkpt>
<trkpt lat="46.47656" lon="6.79549"><ele>555.8</ele><time>2018-07-11T16:51:33Z</time></trkpt>
<trkpt lat="46.47664" lon="6.79521"><ele>555.2</ele><time>2018-07-11T16:51:36Z</time></trkpt>
<trkpt lat="46.47675" lon="6.795"><ele>554.8</ele><time>2018-07-11T16:51:39Z</time></trkpt>
<trkpt lat="46.47679" lon="6.79493"><ele>554.8</ele><time>2018-07-11T16:51:40Z</time></trkpt>
<trkpt lat="46.4768" lon="6.79462"><ele>552.4</ele><time>2018-07-11T16:51:44Z</time></trkpt>
<trkpt lat="46.47679" lon="6.79453"><ele>551.6</ele><time>2018-07-11T16:51:45Z</time></trkpt>
<trkpt lat="46.47679" lon="6.79445"><ele>550.6</ele><time>2018-07-11T16:51:46Z</time></trkpt>
<trkpt lat="46.47686" lon="6.79418"><ele>548.2</ele><time>2018-07-11T16:51:49Z</time></trkpt>
<trkpt lat="46.47695" lon="6.794"><ele>546.2</ele><time>2018-07-11T16:51:51Z</time></trkpt>
<trkpt lat="46.47709" lon="6.79369"><ele>543</ele><time>2018-07-11T16:51:54Z</time></trkpt>
<trkpt lat="46.47717" lon="6.79345"><ele>540.4</ele><time>2018-07-11T16:51:56Z</time></trkpt>
<trkpt lat="46.47723" lon="6.79319"><ele>538</ele><time>2018-07-11T16:51:58Z</time></trkpt>
<trkpt lat="46.47726" lon="6.79305"><ele>536.8</ele><time>2018-07-11T16:51:59Z</time></trkpt>
<trkpt lat="46.4773" lon="6.79278"><ele>534.8</ele><time>2018-07-11T16:52:01Z</time></trkpt>
<trkpt lat="46.47734" lon="6.79242"><ele>533.2</ele><time>2018-07-11T16:52:04Z</time></trkpt>
<trkpt lat="46.47745" lon="6.79211"><ele>532.6</ele><time>2018-07-11T16:52:07Z</time></trkpt>
<trkpt lat="46.47749" lon="6.79201"><ele>532.2</ele><time>2018-07-11T16:52:08Z</time></trkpt>
<trkpt lat="46.47763" lon="6.79177"><ele>531.8</ele><time>2018-07-11T16:52:11Z</time></trkpt>
<trkpt lat="46.47776" lon="6.79153"><ele>531.6</ele><time>2018-07-11T16:52:14Z</time></trkpt>
<trkpt lat="46.47779" lon="6.79145"><ele>531.6</ele><time>2018-07-11T16:52:15Z</time></trkpt>
<trkpt lat="46.47783" lon="6.79118"><ele>531.4</ele><time>2018-07-11T16:52:18Z</time></trkpt>
<trkpt lat="46.47789" lon="6.7909"><ele>530.6</ele><time>2018-07-11T16:52:21Z</time></trkpt>
<trkpt lat="46.47798" lon="6.79062"><ele>528.6</ele><time>2018-07-11T16:52:24Z</time></trkpt>
<trkpt lat="46.478" lon="6.79052"><ele>528.4</ele><time>2018-07-11T16:52:25Z</time></trkpt>
<trkpt lat="46.47799" lon="6.79019"><ele>527.4</ele><time>2018-07-11T16:52:29Z</time></trkpt>
<trkpt lat="46.47797" lon="6.79012"><ele>527</ele><time>2018-07-11T16:52:30Z</time></trkpt>
<trkpt lat="46.47795" lon="6.79005"><ele>526.8</ele><time>2018-07-11T16:52:31Z</time></trkpt>
<trkpt lat="46.47799" lon="6.78972"><ele>526.2</ele><time>2018-07-11T16:52:35Z</time></trkpt>
<trkpt lat="46.47803" lon="6.78938"><ele>526.6</ele><time>2018-07-11T16:52:39Z</time></trkpt>
<trkpt lat="46.47804" lon="6.7893"><ele>526.4</ele><time>2018-07-11T16:52:40Z</time></trkpt>
<trkpt lat="46.47808" lon="6.78899"><ele>524.2</ele><time>2018-07-11T16:52:44Z</time></trkpt>
<trkpt lat="46.47813" lon="6.78878"><ele>524</ele><time>2018-07-11T16:52:47Z</time></trkpt>
<trkpt lat="46.47817" lon="6.78866"><ele>525</ele><time>2018-07-11T16:52:49Z</time></trkpt>
<trkpt lat="46.47825" lon="6.7884"><ele>525.2</ele><time>2018-07-11T16:52:53Z</time></trkpt>
<trkpt lat="46.47829" lon="6.78828"><ele>525.2</ele><time>2018-07-11T16:52:55Z</time></trkpt>
<trkpt lat="46.47834" lon="6.78817"><ele>525.2</ele><time>2018-07-11T16:52:57Z</time></trkpt>
<trkpt lat="46.47836" lon="6.78811"><ele>525.2</ele><time>2018-07-11T16:52:58Z</time></trkpt>
<trkpt lat="46.47825" lon="6.78806"><ele>523.8</ele><time>2018-07-11T16:53:04Z</time></trkpt>
<trkpt lat="46.47811" lon="6.78826"><ele>521</ele><time>2018-07-11T16:53:07Z</time></trkpt>
<trkpt lat="46.47806" lon="6.78833"><ele>520</ele><time>2018-07-11T16:53:08Z</time></trkpt>
<trkpt lat="46.47794" lon="6.78858"><ele>516.8</ele><time>2018-07-11T16:53:11Z</time></trkpt>
<trkpt lat="46.47778" lon="6.78882"><ele>513</ele><time>2018-07-11T16:53:14Z</time></trkpt>
<trkpt lat="46.47762" lon="6.78907"><ele>509.2</ele><time>2018-07-11T16:53:17Z</time></trkpt>
<trkpt lat="46.47746" lon="6.78931"><ele>505.4</ele><time>2018-07-11T16:53:20Z</time></trkpt>
<trkpt lat="46.47732" lon="6.78957"><ele>502</ele><time>2018-07-11T16:53:23Z</time></trkpt>
<trkpt lat="46.47728" lon="6.78966"><ele>500.8</ele><time>2018-07-11T16:53:24Z</time></trkpt>
<trkpt lat="46.47718" lon="6.78995"><ele>496.4</ele><time>2018-07-11T16:53:27Z</time></trkpt>
<trkpt lat="46.47713" lon="6.79004"><ele>495.2</ele><time>2018-07-11T16:53:28Z</time></trkpt>
<trkpt lat="46.47704" lon="6.79018"><ele>493.2</ele><time>2018-07-11T16:53:30Z</time></trkpt>
<trkpt lat="46.47697" lon="6.79026"><ele>491.6</ele><time>2018-07-11T16:53:32Z</time></trkpt>
<trkpt lat="46.47686" lon="6.79018"><ele>488.8</ele><time>2018-07-11T16:53:35Z</time></trkpt>
<trkpt lat="46.47685" lon="6.79008"><ele>488</ele><time>2018-07-11T16:53:36Z</time></trkpt>
<trkpt lat="46.47688" lon="6.78978"><ele>489.2</ele><time>2018-07-11T16:53:39Z</time></trkpt>
<trkpt lat="46.47694" lon="6.78966"><ele>490.2</ele><time>2018-07-11T16:53:41Z</time></trkpt>
<trkpt lat="46.47709" lon="6.78942"><ele>492</ele><time>2018-07-11T16:53:47Z</time></trkpt>
<trkpt lat="46.47715" lon="6.7893"><ele>492.8</ele><time>2018-07-11T16:53:50Z</time></trkpt>
<trkpt lat="46.47724" lon="6.78906"><ele>494.6</ele><time>2018-07-11T16:53:56Z</time></trkpt>
<trkpt lat="46.47731" lon="6.78878"><ele>496</ele><time>2018-07-11T16:54:03Z</time></trkpt>
<trkpt lat="46.47734" lon="6.78865"><ele>496.4</ele><time>2018-07-11T16:54:06Z</time></trkpt>
<trkpt lat="46.47735" lon="6.78861"><ele>496.4</ele><time>2018-07-11T16:54:07Z</time></trkpt>
<trkpt lat="46.47736" lon="6.78857"><ele>496.6</ele><time>2018-07-11T16:54:08Z</time></trkpt>
<trkpt lat="46.47738" lon="6.78848"><ele>496.8</ele><time>2018-07-11T16:54:10Z</time></trkpt>
<trkpt lat="46.47739" lon="6.78844"><ele>497</ele><time>2018-07-11T16:54:11Z</time></trkpt>
<trkpt lat="46.47741" lon="6.78835"><ele>497.2</ele><time>2018-07-11T16:54:13Z</time></trkpt>
<trkpt lat="46.47745" lon="6.78822"><ele>497.2</ele><time>2018-07-11T16:54:16Z</time></trkpt>
<trkpt lat="46.47755" lon="6.78799"><ele>496.8</ele><time>2018-07-11T16:54:21Z</time></trkpt>
<trkpt lat="46.47759" lon="6.78787"><ele>496.6</ele><time>2018-07-11T16:54:23Z</time></trkpt>
<trkpt lat="46.47766" lon="6.78761"><ele>496.6</ele><time>2018-07-11T16:54:27Z</time></trkpt>
<trkpt lat="46.47773" lon="6.78731"><ele>497.4</ele><time>2018-07-11T16:54:32Z</time></trkpt>
<trkpt lat="46.47779" lon="6.78705"><ele>498.8</ele><time>2018-07-11T16:54:38Z</time></trkpt>
<trkpt lat="46.47783" lon="6.7869"><ele>499.8</ele><time>2018-07-11T16:54:42Z</time></trkpt>
<trkpt lat="46.47786" lon="6.78676"><ele>500.4</ele><time>2018-07-11T16:54:46Z</time></trkpt>
<trkpt lat="46.47789" lon="6.78657"><ele>499.6</ele><time>2018-07-11T16:54:50Z</time></trkpt>
<trkpt lat="46.47792" lon="6.78645"><ele>499.2</ele><time>2018-07-11T16:54:52Z</time></trkpt>
<trkpt lat="46.47799" lon="6.78614"><ele>497.6</ele><time>2018-07-11T16:54:56Z</time></trkpt>
<trkpt lat="46.47804" lon="6.78587"><ele>496.6</ele><time>2018-07-11T16:54:59Z</time></trkpt>
<trkpt lat="46.47807" lon="6.78561"><ele>496.4</ele><time>2018-07-11T16:55:02Z</time></trkpt>
<trkpt lat="46.47809" lon="6.78531"><ele>497.4</ele><time>2018-07-11T16:55:06Z</time></trkpt>
<trkpt lat="46.47809" lon="6.78498"><ele>498.6</ele><time>2018-07-11T16:55:12Z</time></trkpt>
<trkpt lat="46.47809" lon="6.78472"><ele>499.6</ele><time>2018-07-11T16:55:17Z</time></trkpt>
<trkpt lat="46.47809" lon="6.78443"><ele>501.4</ele><time>2018-07-11T16:55:24Z</time></trkpt>
<trkpt lat="46.4781" lon="6.78435"><ele>502.2</ele><time>2018-07-11T16:55:27Z</time></trkpt>
<trkpt lat="46.47815" lon="6.78408"><ele>506</ele><time>2018-07-11T16:55:37Z</time></trkpt>
<trkpt lat="46.47821" lon="6.78389"><ele>507.2</ele><time>2018-07-11T16:55:43Z</time></trkpt>
<trkpt lat="46.47825" lon="6.78382"><ele>507.6</ele><time>2018-07-11T16:55:45Z</time></trkpt>
<trkpt lat="46.47839" lon="6.78363"><ele>508.6</ele><time>2018-07-11T16:55:52Z</time></trkpt>
<trkpt lat="46.47853" lon="6.78342"><ele>508.8</ele><time>2018-07-11T16:55:58Z</time></trkpt>
<trkpt lat="46.47869" lon="6.7832"><ele>507.6</ele><time>2018-07-11T16:56:02Z</time></trkpt>
<trkpt lat="46.47883" lon="6.78302"><ele>510.2</ele><time>2018-07-11T16:56:07Z</time></trkpt>
<trkpt lat="46.47891" lon="6.78295"><ele>512</ele><time>2018-07-11T16:56:13Z</time></trkpt>
<trkpt lat="46.479" lon="6.78282"><ele>513.8</ele><time>2018-07-11T16:56:20Z</time></trkpt>
<trkpt lat="46.47913" lon="6.78264"><ele>515.6</ele><time>2018-07-11T16:56:29Z</time></trkpt>
<trkpt lat="46.47939" lon="6.78244"><ele>517.4</ele><time>2018-07-11T16:56:41Z</time></trkpt>
<trkpt lat="46.47956" lon="6.78229"><ele>518.2</ele><time>2018-07-11T16:56:48Z</time></trkpt>
<trkpt lat="46.47966" lon="6.78216"><ele>519.6</ele><time>2018-07-11T16:56:54Z</time></trkpt>
<trkpt lat="46.47977" lon="6.78194"><ele>522.4</ele><time>2018-07-11T16:57:04Z</time></trkpt>
<trkpt lat="46.47979" lon="6.78189"><ele>523</ele><time>2018-07-11T16:57:06Z</time></trkpt>
<trkpt lat="46.47977" lon="6.78159"><ele>523.4</ele><time>2018-07-11T16:57:15Z</time></trkpt>
<trkpt lat="46.47971" lon="6.78129"><ele>522</ele><time>2018-07-11T16:57:20Z</time></trkpt>
<trkpt lat="46.47965" lon="6.781"><ele>521.6</ele><time>2018-07-11T16:57:24Z</time></trkpt>
<trkpt lat="46.47959" lon="6.7807"><ele>521.8</ele><time>2018-07-11T16:57:28Z</time></trkpt>
<trkpt lat="46.47957" lon="6.78056"><ele>522.2</ele><time>2018-07-11T16:57:30Z</time></trkpt>
<trkpt lat="46.47952" lon="6.7803"><ele>523</ele><time>2018-07-11T16:57:34Z</time></trkpt>
<trkpt lat="46.47948" lon="6.78"><ele>523.4</ele><time>2018-07-11T16:57:39Z</time></trkpt>
<trkpt lat="46.47946" lon="6.77971"><ele>523.2</ele><time>2018-07-11T16:57:44Z</time></trkpt>
<trkpt lat="46.47943" lon="6.77959"><ele>523.8</ele><time>2018-07-11T16:57:47Z</time></trkpt>
<trkpt lat="46.47924" lon="6.77951"><ele>525.2</ele><time>2018-07-11T16:57:53Z</time></trkpt>
<trkpt lat="46.47905" lon="6.77944"><ele>522.8</ele><time>2018-07-11T16:57:58Z</time></trkpt>
<trkpt lat="46.479" lon="6.77939"><ele>521.6</ele><time>2018-07-11T16:57:59Z</time></trkpt>
<trkpt lat="46.4789" lon="6.77913"><ele>517.2</ele><time>2018-07-11T16:58:02Z</time></trkpt>
<trkpt lat="46.47887" lon="6.77887"><ele>516.4</ele><time>2018-07-11T16:58:04Z</time></trkpt>
<trkpt lat="46.47886" lon="6.77861"><ele>515.6</ele><time>2018-07-11T16:58:06Z</time></trkpt>
<trkpt lat="46.47883" lon="6.77823"><ele>514.6</ele><time>2018-07-11T16:58:09Z</time></trkpt>
<trkpt lat="46.47881" lon="6.77787"><ele>514.2</ele><time>2018-07-11T16:58:12Z</time></trkpt>
<trkpt lat="46.4788" lon="6.77766"><ele>514.6</ele><time>2018-07-11T16:58:14Z</time></trkpt>
<trkpt lat="46.47879" lon="6.77756"><ele>514.6</ele><time>2018-07-11T16:58:15Z</time></trkpt>
<trkpt lat="46.47878" lon="6.77747"><ele>514.8</ele><time>2018-07-11T16:58:16Z</time></trkpt>
<trkpt lat="46.47874" lon="6.77716"><ele>515.2</ele><time>2018-07-11T16:58:20Z</time></trkpt>
<trkpt lat="46.47869" lon="6.7769"><ele>516</ele><time>2018-07-11T16:58:24Z</time></trkpt>
<trkpt lat="46.47865" lon="6.77665"><ele>517.4</ele><time>2018-07-11T16:58:29Z</time></trkpt>
<trkpt lat="46.47858" lon="6.77636"><ele>517.6</ele><time>2018-07-11T16:58:35Z</time></trkpt>
<trkpt lat="46.47868" lon="6.77614"><ele>517.6</ele><time>2018-07-11T16:58:40Z</time></trkpt>
<trkpt lat="46.47887" lon="6.77617"><ele>516.2</ele><time>2018-07-11T16:58:44Z</time></trkpt>
<trkpt lat="46.47908" lon="6.77603"><ele>513</ele><time>2018-07-11T16:58:48Z</time></trkpt>
<trkpt lat="46.47913" lon="6.77576"><ele>511</ele><time>2018-07-11T16:58:51Z</time></trkpt>
<trkpt lat="46.47901" lon="6.77555"><ele>509.4</ele><time>2018-07-11T16:58:54Z</time></trkpt>
<trkpt lat="46.4789" lon="6.77528"><ele>507.2</ele><time>2018-07-11T16:58:58Z</time></trkpt>
<trkpt lat="46.47882" lon="6.77507"><ele>506.2</ele><time>2018-07-11T16:59:01Z</time></trkpt>
<trkpt lat="46.47878" lon="6.77501"><ele>506</ele><time>2018-07-11T16:59:02Z</time></trkpt>
<trkpt lat="46.47869" lon="6.77476"><ele>507.6</ele><time>2018-07-11T16:59:06Z</time></trkpt>
<trkpt lat="46.47866" lon="6.77466"><ele>508</ele><time>2018-07-11T16:59:08Z</time></trkpt>
<trkpt lat="46.47864" lon="6.77438"><ele>508.2</ele><time>2018-07-11T16:59:13Z</time></trkpt>
<trkpt lat="46.47863" lon="6.77418"><ele>506.6</ele><time>2018-07-11T16:59:16Z</time></trkpt>
<trkpt lat="46.47863" lon="6.7739"><ele>501.6</ele><time>2018-07-11T16:59:19Z</time></trkpt>
<trkpt lat="46.47864" lon="6.77353"><ele>498.8</ele><time>2018-07-11T16:59:22Z</time></trkpt>
<trkpt lat="46.47866" lon="6.7734"><ele>498.4</ele><time>2018-07-11T16:59:23Z</time></trkpt>
<trkpt lat="46.47875" lon="6.77308"><ele>498</ele><time>2018-07-11T16:59:26Z</time></trkpt>
<trkpt lat="46.47867" lon="6.7728"><ele>495</ele><time>2018-07-11T16:59:29Z</time></trkpt>
<trkpt lat="46.47861" lon="6.77271"><ele>494</ele><time>2018-07-11T16:59:30Z</time></trkpt>
<trkpt lat="46.47848" lon="6.77251"><ele>492</ele><time>2018-07-11T16:59:32Z</time></trkpt>
<trkpt lat="46.47836" lon="6.77229"><ele>491</ele><time>2018-07-11T16:59:34Z</time></trkpt>
<trkpt lat="46.4783" lon="6.77219"><ele>490.8</ele><time>2018-07-11T16:59:35Z</time></trkpt>
<trkpt lat="46.47825" lon="6.7721"><ele>490.6</ele><time>2018-07-11T16:59:36Z</time></trkpt>
<trkpt lat="46.47812" lon="6.77187"><ele>490</ele><time>2018-07-11T16:59:39Z</time></trkpt>
<trkpt lat="46.47806" lon="6.77177"><ele>490.2</ele><time>2018-07-11T16:59:43Z</time></trkpt>
<trkpt lat="46.47803" lon="6.77178"><ele>490.2</ele><time>2018-07-11T16:59:46Z</time></trkpt>
<trkpt lat="46.478" lon="6.77184"><ele>490</ele><time>2018-07-11T16:59:48Z</time></trkpt>
<trkpt lat="46.47787" lon="6.77205"><ele>488.8</ele><time>2018-07-11T16:59:52Z</time></trkpt>
<trkpt lat="46.47772" lon="6.77226"><ele>487.4</ele><time>2018-07-11T16:59:55Z</time></trkpt>
<trkpt lat="46.47767" lon="6.77234"><ele>486.6</ele><time>2018-07-11T16:59:56Z</time></trkpt>
<trkpt lat="46.47757" lon="6.77252"><ele>484.8</ele><time>2018-07-11T16:59:58Z</time></trkpt>
<trkpt lat="46.47747" lon="6.77275"><ele>482.8</ele><time>2018-07-11T17:00:00Z</time></trkpt>
<trkpt lat="46.47737" lon="6.77302"><ele>480</ele><time>2018-07-11T17:00:02Z</time></trkpt>
<trkpt lat="46.4773" lon="6.77315"><ele>478.4</ele><time>2018-07-11T17:00:03Z</time></trkpt>
<trkpt lat="46.47713" lon="6.7734"><ele>475.2</ele><time>2018-07-11T17:00:05Z</time></trkpt>
<trkpt lat="46.47697" lon="6.77369"><ele>472.6</ele><time>2018-07-11T17:00:07Z</time></trkpt>
<trkpt lat="46.47685" lon="6.774"><ele>470.8</ele><time>2018-07-11T17:00:09Z</time></trkpt>
<trkpt lat="46.47676" lon="6.77425"><ele>468.8</ele><time>2018-07-11T17:00:11Z</time></trkpt>
<trkpt lat="46.47663" lon="6.77452"><ele>466.2</ele><time>2018-07-11T17:00:14Z</time></trkpt>
<trkpt lat="46.4766" lon="6.77458"><ele>465.6</ele><time>2018-07-11T17:00:15Z</time></trkpt>
<trkpt lat="46.4765" lon="6.77463"><ele>464.8</ele><time>2018-07-11T17:00:19Z</time></trkpt>
<trkpt lat="46.47654" lon="6.7744"><ele>464.4</ele><time>2018-07-11T17:00:23Z</time></trkpt>
<trkpt lat="46.47664" lon="6.77408"><ele>463.6</ele><time>2018-07-11T17:00:27Z</time></trkpt>
<trkpt lat="46.47672" lon="6.77382"><ele>463.2</ele><time>2018-07-11T17:00:30Z</time></trkpt>
<trkpt lat="46.47684" lon="6.77356"><ele>462.2</ele><time>2018-07-11T17:00:33Z</time></trkpt>
<trkpt lat="46.47697" lon="6.77328"><ele>461</ele><time>2018-07-11T17:00:36Z</time></trkpt>
<trkpt lat="46.47705" lon="6.77306"><ele>459.4</ele><time>2018-07-11T17:00:38Z</time></trkpt>
<trkpt lat="46.47708" lon="6.77294"><ele>458.4</ele><time>2018-07-11T17:00:39Z</time></trkpt>
<trkpt lat="46.47714" lon="6.77266"><ele>456.2</ele><time>2018-07-11T17:00:41Z</time></trkpt>
<trkpt lat="46.47717" lon="6.77251"><ele>455</ele><time>2018-07-11T17:00:42Z</time></trkpt>
<trkpt lat="46.47725" lon="6.77222"><ele>452.8</ele><time>2018-07-11T17:00:44Z</time></trkpt>
<trkpt lat="46.47732" lon="6.77193"><ele>451.6</ele><time>2018-07-11T17:00:46Z</time></trkpt>
<trkpt lat="46.47742" lon="6.77161"><ele>450.4</ele><time>2018-07-11T17:00:49Z</time></trkpt>
<trkpt lat="46.47756" lon="6.77137"><ele>450.8</ele><time>2018-07-11T17:00:52Z</time></trkpt>
<trkpt lat="46.47768" lon="6.77117"><ele>452</ele><time>2018-07-11T17:00:55Z</time></trkpt>
<trkpt lat="46.47777" lon="6.77092"><ele>453.2</ele><time>2018-07-11T17:00:59Z</time></trkpt>
<trkpt lat="46.47786" lon="6.77063"><ele>453.4</ele><time>2018-07-11T17:01:03Z</time></trkpt>
<trkpt lat="46.47788" lon="6.77055"><ele>453.2</ele><time>2018-07-11T17:01:04Z</time></trkpt>
<trkpt lat="46.47797" lon="6.77031"><ele>452.6</ele><time>2018-07-11T17:01:07Z</time></trkpt>
<trkpt lat="46.47803" lon="6.77005"><ele>451.6</ele><time>2018-07-11T17:01:10Z</time></trkpt>
<trkpt lat="46.47806" lon="6.76996"><ele>451.2</ele><time>2018-07-11T17:01:11Z</time></trkpt>
<trkpt lat="46.47817" lon="6.76968"><ele>449.8</ele><time>2018-07-11T17:01:14Z</time></trkpt>
<trkpt lat="46.47827" lon="6.76939"><ele>448.2</ele><time>2018-07-11T17:01:17Z</time></trkpt>
<trkpt lat="46.47836" lon="6.76905"><ele>446.2</ele><time>2018-07-11T17:01:20Z</time></trkpt>
<trkpt lat="46.47843" lon="6.76867"><ele>443.8</ele><time>2018-07-11T17:01:23Z</time></trkpt>
<trkpt lat="46.47849" lon="6.7684"><ele>441.8</ele><time>2018-07-11T17:01:25Z</time></trkpt>
<trkpt lat="46.47852" lon="6.76826"><ele>440.8</ele><time>2018-07-11T17:01:26Z</time></trkpt>
<trkpt lat="46.47858" lon="6.76797"><ele>439.2</ele><time>2018-07-11T17:01:28Z</time></trkpt>
<trkpt lat="46.47867" lon="6.76769"><ele>437.4</ele><time>2018-07-11T17:01:30Z</time></trkpt>
<trkpt lat="46.47875" lon="6.76741"><ele>436</ele><time>2018-07-11T17:01:32Z</time></trkpt>
<trkpt lat="46.47884" lon="6.76715"><ele>435</ele><time>2018-07-11T17:01:34Z</time></trkpt>
<trkpt lat="46.47897" lon="6.76686"><ele>436.8</ele><time>2018-07-11T17:01:37Z</time></trkpt>
<trkpt lat="46.47909" lon="6.76661"><ele>436.8</ele><time>2018-07-11T17:01:40Z</time></trkpt>
<trkpt lat="46.4792" lon="6.76636"><ele>436.6</ele><time>2018-07-11T17:01:43Z</time></trkpt>
<trkpt lat="46.47929" lon="6.76611"><ele>436.4</ele><time>2018-07-11T17:01:46Z</time></trkpt>
<trkpt lat="46.47933" lon="6.76602"><ele>436.4</ele><time>2018-07-11T17:01:47Z</time></trkpt>
<trkpt lat="46.47941" lon="6.76576"><ele>436.2</ele><time>2018-07-11T17:01:50Z</time></trkpt>
<trkpt lat="46.47948" lon="6.76559"><ele>435.8</ele><time>2018-07-11T17:01:52Z</time></trkpt>
<trkpt lat="46.47959" lon="6.76533"><ele>435.2</ele><time>2018-07-11T17:01:55Z</time></trkpt>
<trkpt lat="46.47966" lon="6.76504"><ele>436</ele><time>2018-07-11T17:01:58Z</time></trkpt>
<trkpt lat="46.47974" lon="6.76473"><ele>436.8</ele><time>2018-07-11T17:02:02Z</time></trkpt>
<trkpt lat="46.47983" lon="6.76443"><ele>435.8</ele><time>2018-07-11T17:02:06Z</time></trkpt>
<trkpt lat="46.47994" lon="6.76419"><ele>435</ele><time>2018-07-11T17:02:09Z</time></trkpt>
<trkpt lat="46.48005" lon="6.76395"><ele>436.8</ele><time>2018-07-11T17:02:12Z</time></trkpt>
<trkpt lat="46.48017" lon="6.76375"><ele>438.6</ele><time>2018-07-11T17:02:16Z</time></trkpt>
<trkpt lat="46.48032" lon="6.76355"><ele>441.2</ele><time>2018-07-11T17:02:23Z</time></trkpt>
<trkpt lat="46.48046" lon="6.76338"><ele>444</ele><time>2018-07-11T17:02:30Z</time></trkpt>
<trkpt lat="46.48051" lon="6.76329"><ele>445</ele><time>2018-07-11T17:02:33Z</time></trkpt>
<trkpt lat="46.48061" lon="6.76308"><ele>446.4</ele><time>2018-07-11T17:02:39Z</time></trkpt>
<trkpt lat="46.48066" lon="6.76299"><ele>446.4</ele><time>2018-07-11T17:02:41Z</time></trkpt>
<trkpt lat="46.48068" lon="6.76294"><ele>446.4</ele><time>2018-07-11T17:02:42Z</time></trkpt>
<trkpt lat="46.48075" lon="6.76279"><ele>446</ele><time>2018-07-11T17:02:45Z</time></trkpt>
<trkpt lat="46.48084" lon="6.76256"><ele>445.6</ele><time>2018-07-11T17:02:49Z</time></trkpt>
<trkpt lat="46.48095" lon="6.76234"><ele>445.8</ele><time>2018-07-11T17:02:53Z</time></trkpt>
<trkpt lat="46.48106" lon="6.76212"><ele>446.2</ele><time>2018-07-11T17:02:57Z</time></trkpt>
<trkpt lat="46.48114" lon="6.76198"><ele>446.8</ele><time>2018-07-11T17:03:00Z</time></trkpt>
<trkpt lat="46.48127" lon="6.76178"><ele>447.6</ele><time>2018-07-11T17:03:05Z</time></trkpt>
<trkpt lat="46.48141" lon="6.76156"><ele>448.6</ele><time>2018-07-11T17:03:11Z</time></trkpt>
<trkpt lat="46.48153" lon="6.76131"><ele>449.6</ele><time>2018-07-11T17:03:17Z</time></trkpt>
<trkpt lat="46.48164" lon="6.76107"><ele>449.2</ele><time>2018-07-11T17:03:22Z</time></trkpt>
<trkpt lat="46.48176" lon="6.76078"><ele>447</ele><time>2018-07-11T17:03:26Z</time></trkpt>
<trkpt lat="46.48191" lon="6.76055"><ele>446.8</ele><time>2018-07-11T17:03:29Z</time></trkpt>
<trkpt lat="46.48204" lon="6.76035"><ele>448.6</ele><time>2018-07-11T17:03:32Z</time></trkpt>
<trkpt lat="46.4822" lon="6.76018"><ele>449.6</ele><time>2018-07-11T17:03:36Z</time></trkpt>
<trkpt lat="46.48237" lon="6.76001"><ele>449.8</ele><time>2018-07-11T17:03:40Z</time></trkpt>
<trkpt lat="46.48252" lon="6.75984"><ele>450</ele><time>2018-07-11T17:03:44Z</time></trkpt>
<trkpt lat="46.48267" lon="6.75967"><ele>450.6</ele><time>2018-07-11T17:03:48Z</time></trkpt>
<trkpt lat="46.48281" lon="6.75949"><ele>450.6</ele><time>2018-07-11T17:03:52Z</time></trkpt>
<trkpt lat="46.48296" lon="6.7593"><ele>450.6</ele><time>2018-07-11T17:03:56Z</time></trkpt>
<trkpt lat="46.48313" lon="6.7591"><ele>450</ele><time>2018-07-11T17:04:00Z</time></trkpt>
<trkpt lat="46.48331" lon="6.7589"><ele>449.8</ele><time>2018-07-11T17:04:04Z</time></trkpt>
<trkpt lat="46.48349" lon="6.75869"><ele>449.6</ele><time>2018-07-11T17:04:08Z</time></trkpt>
<trkpt lat="46.48367" lon="6.75849"><ele>449.4</ele><time>2018-07-11T17:04:12Z</time></trkpt>
<trkpt lat="46.48382" lon="6.75824"><ele>448.2</ele><time>2018-07-11T17:04:16Z</time></trkpt>
<trkpt lat="46.48392" lon="6.75812"><ele>447.8</ele><time>2018-07-11T17:04:18Z</time></trkpt>
<trkpt lat="46.48408" lon="6.75798"><ele>449</ele><time>2018-07-11T17:04:21Z</time></trkpt>
<trkpt lat="46.48426" lon="6.75782"><ele>451</ele><time>2018-07-11T17:04:26Z</time></trkpt>
<trkpt lat="46.4844" lon="6.75763"><ele>451.2</ele><time>2018-07-11T17:04:31Z</time></trkpt>
<trkpt lat="46.48454" lon="6.75743"><ele>450.8</ele><time>2018-07-11T17:04:35Z</time></trkpt>
<trkpt lat="46.48471" lon="6.75721"><ele>450.6</ele><time>2018-07-11T17:04:39Z</time></trkpt>
<trkpt lat="46.48485" lon="6.75695"><ele>450.8</ele><time>2018-07-11T17:04:43Z</time></trkpt>
<trkpt lat="46.48499" lon="6.7567"><ele>450.6</ele><time>2018-07-11T17:04:47Z</time></trkpt>
<trkpt lat="46.48513" lon="6.75652"><ele>450</ele><time>2018-07-11T17:04:50Z</time></trkpt>
<trkpt lat="46.48526" lon="6.75633"><ele>450.2</ele><time>2018-07-11T17:04:53Z</time></trkpt>
<trkpt lat="46.48538" lon="6.75611"><ele>448.8</ele><time>2018-07-11T17:04:56Z</time></trkpt>
<trkpt lat="46.48546" lon="6.75593"><ele>448.2</ele><time>2018-07-11T17:04:58Z</time></trkpt>
<trkpt lat="46.48558" lon="6.75567"><ele>447</ele><time>2018-07-11T17:05:01Z</time></trkpt>
<trkpt lat="46.48572" lon="6.75536"><ele>444.2</ele><time>2018-07-11T17:05:04Z</time></trkpt>
<trkpt lat="46.48583" lon="6.75514"><ele>442.6</ele><time>2018-07-11T17:05:06Z</time></trkpt>
<trkpt lat="46.4859" lon="6.75503"><ele>442.2</ele><time>2018-07-11T17:05:07Z</time></trkpt>
<trkpt lat="46.48605" lon="6.75487"><ele>442.6</ele><time>2018-07-11T17:05:09Z</time></trkpt>
<trkpt lat="46.48625" lon="6.75468"><ele>443.6</ele><time>2018-07-11T17:05:12Z</time></trkpt>
<trkpt lat="46.48643" lon="6.75451"><ele>444.8</ele><time>2018-07-11T17:05:15Z</time></trkpt>
<trkpt lat="46.48654" lon="6.7544"><ele>445.6</ele><time>2018-07-11T17:05:17Z</time></trkpt>
<trkpt lat="46.48673" lon="6.75421"><ele>445.2</ele><time>2018-07-11T17:05:21Z</time></trkpt>
<trkpt lat="46.48689" lon="6.75401"><ele>443.6</ele><time>2018-07-11T17:05:24Z</time></trkpt>
<trkpt lat="46.48704" lon="6.75373"><ele>441.2</ele><time>2018-07-11T17:05:27Z</time></trkpt>
<trkpt lat="46.48716" lon="6.75351"><ele>439.8</ele><time>2018-07-11T17:05:29Z</time></trkpt>
<trkpt lat="46.48729" lon="6.7533"><ele>440.4</ele><time>2018-07-11T17:05:31Z</time></trkpt>
<trkpt lat="46.48744" lon="6.75304"><ele>442.6</ele><time>2018-07-11T17:05:34Z</time></trkpt>
<trkpt lat="46.48755" lon="6.75283"><ele>444</ele><time>2018-07-11T17:05:37Z</time></trkpt>
<trkpt lat="46.48767" lon="6.75259"><ele>444.8</ele><time>2018-07-11T17:05:41Z</time></trkpt>
<trkpt lat="46.4878" lon="6.75238"><ele>445.6</ele><time>2018-07-11T17:05:45Z</time></trkpt>
<trkpt lat="46.48793" lon="6.75212"><ele>446</ele><time>2018-07-11T17:05:50Z</time></trkpt>
<trkpt lat="46.48802" lon="6.75184"><ele>445.2</ele><time>2018-07-11T17:05:54Z</time></trkpt>
<trkpt lat="46.48809" lon="6.75168"><ele>443.8</ele><time>2018-07-11T17:05:56Z</time></trkpt>
<trkpt lat="46.48826" lon="6.75139"><ele>442</ele><time>2018-07-11T17:05:59Z</time></trkpt>
<trkpt lat="46.48831" lon="6.75128"><ele>442.4</ele><time>2018-07-11T17:06:00Z</time></trkpt>
<trkpt lat="46.48837" lon="6.75098"><ele>444.8</ele><time>2018-07-11T17:06:03Z</time></trkpt>
<trkpt lat="46.48842" lon="6.7507"><ele>446.2</ele><time>2018-07-11T17:06:07Z</time></trkpt>
<trkpt lat="46.48847" lon="6.75053"><ele>446.6</ele><time>2018-07-11T17:06:10Z</time></trkpt>
<trkpt lat="46.48858" lon="6.75029"><ele>447.2</ele><time>2018-07-11T17:06:15Z</time></trkpt>
<trkpt lat="46.48875" lon="6.75007"><ele>446.8</ele><time>2018-07-11T17:06:20Z</time></trkpt>
<trkpt lat="46.48879" lon="6.75003"><ele>446.4</ele><time>2018-07-11T17:06:21Z</time></trkpt>
<trkpt lat="46.489" lon="6.74988"><ele>445.4</ele><time>2018-07-11T17:06:25Z</time></trkpt>
<trkpt lat="46.48917" lon="6.74975"><ele>445.2</ele><time>2018-07-11T17:06:28Z</time></trkpt>
<trkpt lat="46.48922" lon="6.74969"><ele>445.2</ele><time>2018-07-11T17:06:29Z</time></trkpt>
<trkpt lat="46.48934" lon="6.74949"><ele>445</ele><time>2018-07-11T17:06:32Z</time></trkpt>
<trkpt lat="46.48941" lon="6.74925"><ele>444.8</ele><time>2018-07-11T17:06:35Z</time></trkpt>
<trkpt lat="46.48944" lon="6.74907"><ele>444.4</ele><time>2018-07-11T17:06:37Z</time></trkpt>
<trkpt lat="46.48949" lon="6.74874"><ele>441</ele><time>2018-07-11T17:06:40Z</time></trkpt>
<trkpt lat="46.48953" lon="6.74848"><ele>439.6</ele><time>2018-07-11T17:06:42Z</time></trkpt>
<trkpt lat="46.48957" lon="6.74822"><ele>438.4</ele><time>2018-07-11T17:06:44Z</time></trkpt>
<trkpt lat="46.48965" lon="6.74797"><ele>436.4</ele><time>2018-07-11T17:06:46Z</time></trkpt>
<trkpt lat="46.48974" lon="6.7477"><ele>434</ele><time>2018-07-11T17:06:48Z</time></trkpt>
<trkpt lat="46.48984" lon="6.74744"><ele>432.8</ele><time>2018-07-11T17:06:50Z</time></trkpt>
<trkpt lat="46.48994" lon="6.74719"><ele>432.4</ele><time>2018-07-11T17:06:52Z</time></trkpt>
<trkpt lat="46.49007" lon="6.74691"><ele>434.8</ele><time>2018-07-11T17:06:55Z</time></trkpt>
<trkpt lat="46.49018" lon="6.74672"><ele>435.8</ele><time>2018-07-11T17:06:58Z</time></trkpt>
<trkpt lat="46.49034" lon="6.74644"><ele>434.2</ele><time>2018-07-11T17:07:02Z</time></trkpt>
<trkpt lat="46.4905" lon="6.74617"><ele>433</ele><time>2018-07-11T17:07:05Z</time></trkpt>
<trkpt lat="46.49064" lon="6.74592"><ele>435</ele><time>2018-07-11T17:07:08Z</time></trkpt>
<trkpt lat="46.4907" lon="6.74579"><ele>436.4</ele><time>2018-07-11T17:07:10Z</time></trkpt>
<trkpt lat="46.49076" lon="6.74549"><ele>436.6</ele><time>2018-07-11T17:07:15Z</time></trkpt>
<trkpt lat="46.49076" lon="6.74542"><ele>436.6</ele><time>2018-07-11T17:07:16Z</time></trkpt>
<trkpt lat="46.49079" lon="6.74514"><ele>436</ele><time>2018-07-11T17:07:20Z</time></trkpt>
<trkpt lat="46.49087" lon="6.74485"><ele>436</ele><time>2018-07-11T17:07:25Z</time></trkpt>
<trkpt lat="46.49098" lon="6.74471"><ele>437.8</ele><time>2018-07-11T17:07:32Z</time></trkpt>
<trkpt lat="46.49101" lon="6.74468"><ele>438.4</ele><time>2018-07-11T17:07:34Z</time></trkpt>
<trkpt lat="46.49099" lon="6.74455"><ele>439.2</ele><time>2018-07-11T17:07:40Z</time></trkpt>
<trkpt lat="46.49098" lon="6.74453"><ele>439.4</ele><time>2018-07-11T17:07:41Z</time></trkpt>
<trkpt lat="46.49079" lon="6.7442"><ele>436.2</ele><time>2018-07-11T17:07:50Z</time></trkpt>
<trkpt lat="46.49075" lon="6.7441"><ele>435.4</ele><time>2018-07-11T17:07:53Z</time></trkpt>
<trkpt lat="46.49078" lon="6.74402"><ele>432.6</ele><time>2018-07-11T17:07:57Z</time></trkpt>
<trkpt lat="46.4907" lon="6.74382"><ele>426.6</ele><time>2018-07-11T17:08:23Z</time></trkpt>
<trkpt lat="46.4907" lon="6.74374"><ele>425.6</ele><time>2018-07-11T17:08:28Z</time></trkpt>
<trkpt lat="46.49069" lon="6.74358"><ele>423.6</ele><time>2018-07-11T17:08:37Z</time></trkpt>
<trkpt lat="46.49063" lon="6.74328"><ele>420</ele><time>2018-07-11T17:08:42Z</time></trkpt>
<trkpt lat="46.49057" lon="6.74302"><ele>417.6</ele><time>2018-07-11T17:08:49Z</time></trkpt>
<trkpt lat="46.4906" lon="6.74265"><ele>415.2</ele><time>2018-07-11T17:08:56Z</time></trkpt>
<trkpt lat="46.49061" lon="6.74234"><ele>414.6</ele><time>2018-07-11T17:09:00Z</time></trkpt>
<trkpt lat="46.49061" lon="6.74207"><ele>415.4</ele><time>2018-07-11T17:09:04Z</time></trkpt>
<trkpt lat="46.49061" lon="6.74181"><ele>417</ele><time>2018-07-11T17:09:09Z</time></trkpt>
<trkpt lat="46.49063" lon="6.74154"><ele>419.4</ele><time>2018-07-11T17:09:16Z</time></trkpt>
<trkpt lat="46.49066" lon="6.74132"><ele>419.8</ele><time>2018-07-11T17:09:21Z</time></trkpt>
<trkpt lat="46.49068" lon="6.74123"><ele>419.6</ele><time>2018-07-11T17:09:23Z</time></trkpt>
<trkpt lat="46.49068" lon="6.74119"><ele>419.6</ele><time>2018-07-11T17:09:24Z</time></trkpt>
<trkpt lat="46.49069" lon="6.74114"><ele>419.4</ele><time>2018-07-11T17:09:25Z</time></trkpt>
<trkpt lat="46.4907" lon="6.74109"><ele>419.2</ele><time>2018-07-11T17:09:26Z</time></trkpt>
<trkpt lat="46.49074" lon="6.74082"><ele>417.6</ele><time>2018-07-11T17:09:31Z</time></trkpt>
<trkpt lat="46.4908" lon="6.74051"><ele>415.8</ele><time>2018-07-11T17:09:35Z</time></trkpt>
<trkpt lat="46.49086" lon="6.74025"><ele>415</ele><time>2018-07-11T17:09:38Z</time></trkpt>
<trkpt lat="46.49089" lon="6.74007"><ele>414.4</ele><time>2018-07-11T17:09:40Z</time></trkpt>
<trkpt lat="46.49092" lon="6.73979"><ele>413.2</ele><time>2018-07-11T17:09:43Z</time></trkpt>
<trkpt lat="46.49095" lon="6.7395"><ele>410.8</ele><time>2018-07-11T17:09:46Z</time></trkpt>
<trkpt lat="46.49101" lon="6.73925"><ele>407.8</ele><time>2018-07-11T17:09:49Z</time></trkpt>
<trkpt lat="46.49107" lon="6.73892"><ele>405.2</ele><time>2018-07-11T17:09:53Z</time></trkpt>
<trkpt lat="46.49114" lon="6.73862"><ele>404.2</ele><time>2018-07-11T17:09:56Z</time></trkpt>
<trkpt lat="46.4912" lon="6.73832"><ele>403.8</ele><time>2018-07-11T17:09:59Z</time></trkpt>
<trkpt lat="46.49125" lon="6.73799"><ele>403.4</ele><time>2018-07-11T17:10:02Z</time></trkpt>
<trkpt lat="46.4913" lon="6.73765"><ele>403</ele><time>2018-07-11T17:10:05Z</time></trkpt>
<trkpt lat="46.49133" lon="6.73731"><ele>402.6</ele><time>2018-07-11T17:10:08Z</time></trkpt>
<trkpt lat="46.49132" lon="6.73696"><ele>402.6</ele><time>2018-07-11T17:10:11Z</time></trkpt>
<trkpt lat="46.49133" lon="6.73664"><ele>403</ele><time>2018-07-11T17:10:14Z</time></trkpt>
<trkpt lat="46.49131" lon="6.73638"><ele>403.2</ele><time>2018-07-11T17:10:17Z</time></trkpt>
<trkpt lat="46.4913" lon="6.73619"><ele>402</ele><time>2018-07-11T17:10:19Z</time></trkpt>
<trkpt lat="46.4913" lon="6.73586"><ele>400</ele><time>2018-07-11T17:10:22Z</time></trkpt>
<trkpt lat="46.49128" lon="6.73561"><ele>398.4</ele><time>2018-07-11T17:10:24Z</time></trkpt>
<trkpt lat="46.4912" lon="6.73536"><ele>397</ele><time>2018-07-11T17:10:26Z</time></trkpt>
<trkpt lat="46.49111" lon="6.73511"><ele>396.4</ele><time>2018-07-11T17:10:28Z</time></trkpt>
<trkpt lat="46.49107" lon="6.73484"><ele>396.2</ele><time>2018-07-11T17:10:30Z</time></trkpt>
<trkpt lat="46.49103" lon="6.73458"><ele>396</ele><time>2018-07-11T17:10:32Z</time></trkpt>
<trkpt lat="46.49095" lon="6.7342"><ele>395.4</ele><time>2018-07-11T17:10:35Z</time></trkpt>
<trkpt lat="46.49088" lon="6.73396"><ele>395.6</ele><time>2018-07-11T17:10:37Z</time></trkpt>
<trkpt lat="46.49081" lon="6.73372"><ele>395.6</ele><time>2018-07-11T17:10:39Z</time></trkpt>
<trkpt lat="46.4907" lon="6.73337"><ele>395.6</ele><time>2018-07-11T17:10:42Z</time></trkpt>
<trkpt lat="46.49067" lon="6.73325"><ele>395.6</ele><time>2018-07-11T17:10:43Z</time></trkpt>
<trkpt lat="46.49064" lon="6.73313"><ele>395.8</ele><time>2018-07-11T17:10:44Z</time></trkpt>
<trkpt lat="46.49057" lon="6.73278"><ele>396.2</ele><time>2018-07-11T17:10:47Z</time></trkpt>
<trkpt lat="46.4905" lon="6.73247"><ele>396.6</ele><time>2018-07-11T17:10:50Z</time></trkpt>
<trkpt lat="46.49043" lon="6.73218"><ele>397.2</ele><time>2018-07-11T17:10:53Z</time></trkpt>
<trkpt lat="46.49037" lon="6.73193"><ele>398</ele><time>2018-07-11T17:10:56Z</time></trkpt>
<trkpt lat="46.49029" lon="6.73163"><ele>399.2</ele><time>2018-07-11T17:11:00Z</time></trkpt>
<trkpt lat="46.49024" lon="6.73149"><ele>399.8</ele><time>2018-07-11T17:11:02Z</time></trkpt>
<trkpt lat="46.49021" lon="6.73142"><ele>400</ele><time>2018-07-11T17:11:03Z</time></trkpt>
<trkpt lat="46.49011" lon="6.73119"><ele>400.2</ele><time>2018-07-11T17:11:06Z</time></trkpt>
<trkpt lat="46.49001" lon="6.73094"><ele>399.8</ele><time>2018-07-11T17:11:09Z</time></trkpt>
<trkpt lat="46.48989" lon="6.73064"><ele>397.6</ele><time>2018-07-11T17:11:12Z</time></trkpt>
<trkpt lat="46.48977" lon="6.73032"><ele>396</ele><time>2018-07-11T17:11:15Z</time></trkpt>
<trkpt lat="46.48966" lon="6.73002"><ele>396.4</ele><time>2018-07-11T17:11:18Z</time></trkpt>
<trkpt lat="46.48955" lon="6.72973"><ele>396.6</ele><time>2018-07-11T17:11:21Z</time></trkpt>
<trkpt lat="46.48944" lon="6.72943"><ele>396.6</ele><time>2018-07-11T17:11:24Z</time></trkpt>
<trkpt lat="46.48933" lon="6.72914"><ele>395.6</ele><time>2018-07-11T17:11:27Z</time></trkpt>
<trkpt lat="46.48922" lon="6.72882"><ele>394.6</ele><time>2018-07-11T17:11:30Z</time></trkpt>
<trkpt lat="46.48913" lon="6.72848"><ele>393.2</ele><time>2018-07-11T17:11:33Z</time></trkpt>
<trkpt lat="46.48906" lon="6.72823"><ele>392.4</ele><time>2018-07-11T17:11:35Z</time></trkpt>
<trkpt lat="46.48899" lon="6.72789"><ele>391.8</ele><time>2018-07-11T17:11:38Z</time></trkpt>
<trkpt lat="46.48898" lon="6.72779"><ele>391.6</ele><time>2018-07-11T17:11:39Z</time></trkpt>
<trkpt lat="46.48906" lon="6.72755"><ele>392.4</ele><time>2018-07-11T17:11:42Z</time></trkpt>
<trkpt lat="46.48909" lon="6.72749"><ele>392.6</ele><time>2018-07-11T17:11:43Z</time></trkpt>
<trkpt lat="46.48905" lon="6.72731"><ele>393</ele><time>2018-07-11T17:11:47Z</time></trkpt>
<trkpt lat="46.48907" lon="6.72702"><ele>394</ele><time>2018-07-11T17:11:53Z</time></trkpt>
<trkpt lat="46.48908" lon="6.72696"><ele>394</ele><time>2018-07-11T17:11:54Z</time></trkpt>
<trkpt lat="46.48912" lon="6.72682"><ele>395</ele><time>2018-07-11T17:11:57Z</time></trkpt>
<trkpt lat="46.48909" lon="6.7267"><ele>395.4</ele><time>2018-07-11T17:12:00Z</time></trkpt>
<trkpt lat="46.48899" lon="6.72672"><ele>395.4</ele><time>2018-07-11T17:12:03Z</time></trkpt>
<trkpt lat="46.48895" lon="6.72674"><ele>395.2</ele><time>2018-07-11T17:12:04Z</time></trkpt>
<trkpt lat="46.48879" lon="6.72676"><ele>395.6</ele><time>2018-07-11T17:12:09Z</time></trkpt>
<trkpt lat="46.4886" lon="6.72654"><ele>396.2</ele><time>2018-07-11T17:12:16Z</time></trkpt>
<trkpt lat="46.48858" lon="6.7265"><ele>396.4</ele><time>2018-07-11T17:12:17Z</time></trkpt>
<trkpt lat="46.48852" lon="6.72637"><ele>396.2</ele><time>2018-07-11T17:12:20Z</time></trkpt>
<trkpt lat="46.48849" lon="6.72618"><ele>396.2</ele><time>2018-07-11T17:12:24Z</time></trkpt>
<trkpt lat="46.4884" lon="6.72591"><ele>396.2</ele><time>2018-07-11T17:12:30Z</time></trkpt>
<trkpt lat="46.48836" lon="6.72578"><ele>396</ele><time>2018-07-11T17:12:33Z</time></trkpt>
<trkpt lat="46.48834" lon="6.72569"><ele>396</ele><time>2018-07-11T17:12:35Z</time></trkpt>
<trkpt lat="46.48833" lon="6.72563"><ele>395.8</ele><time>2018-07-11T17:12:37Z</time></trkpt>
<trkpt lat="46.48833" lon="6.72563"><ele>395.6</ele><time>2018-07-11T17:12:43Z</time></trkpt>
</trkseg></trk></gpx>